Observation data for Fort Lancaster on 02/16/2017      Previous  Date  Next       Current Mesonet Observations  Soil Data  Daily Summary Page  Observations in Plain Language
KLA1 160600Z 08001KT 03/01 A3017 RMK A01 T00330009  RH  084%=      5-min Rain = 0
KLA1 160601Z 08000KT 04/01 A3017 RMK A01 T00350011  RH  084%=      5-min Rain = 0
KLA1 160602Z 00000KT 04/01 A3017 RMK A01 T00360009  RH  083%=      5-min Rain = 0
KLA1 160603Z 00000KT 04/01 A3017 RMK A01 T00360008  RH  082%=      5-min Rain = 0
KLA1 160604Z 00000KT 04/01 A3017 RMK A01 T00360008  RH  082%=      5-min Rain = 0
KLA1 160605Z 00000KT 04/01 A3017 RMK A01 T00350007  RH  082%=      5-min Rain = 0
KLA1 160606Z 00000KT 04/01 A3017 RMK A01 T00350006  RH  082%=      5-min Rain = 0
KLA1 160607Z 00000KT 03/01 A3017 RMK A01 T00340007  RH  082%=      5-min Rain = 0
KLA1 160608Z 00000KT 03/01 A3017 RMK A01 T00330006  RH  083%=      5-min Rain = 0
KLA1 160609Z 00000KT 03/01 A3017 RMK A01 T00320006  RH  083%=      5-min Rain = 0
KLA1 160610Z 00000KT 03/01 A3017 RMK A01 T00320008  RH  084%=      5-min Rain = 0
KLA1 160611Z 00000KT 03/01 A3017 RMK A01 T00320009  RH  085%=      5-min Rain = 0
KLA1 160612Z 00000KT 03/01 A3017 RMK A01 T00330011  RH  086%=      5-min Rain = 0
KLA1 160613Z 00000KT 03/01 A3017 RMK A01 T00330013  RH  087%=      5-min Rain = 0
KLA1 160614Z 00000KT 03/01 A3017 RMK A01 T00330013  RH  086%=      5-min Rain = 0
KLA1 160615Z 00000KT 03/01 A3017 RMK A01 T00340011  RH  085%=      5-min Rain = 0
KLA1 160616Z 00000KT 03/01 A3017 RMK A01 T00330011  RH  085%=      5-min Rain = 0
KLA1 160617Z 00000KT 03/01 A3017 RMK A01 T00320010  RH  085%=      5-min Rain = 0
KLA1 160618Z 00000KT 03/01 A3017 RMK A01 T00310009  RH  086%=      5-min Rain = 0
KLA1 160619Z 00000KT 03/01 A3017 RMK A01 T00300009  RH  086%=      5-min Rain = 0
KLA1 160620Z 00000KT 03/01 A3017 RMK A01 T00290011  RH  088%=      5-min Rain = 0
KLA1 160621Z 28001KT 03/01 A3017 RMK A01 T00290012  RH  088%=      5-min Rain = 0
KLA1 160622Z 28001KT 03/01 A3017 RMK A01 T00290012  RH  089%=      5-min Rain = 0
KLA1 160623Z 28001KT 03/01 A3017 RMK A01 T00270010  RH  089%=      5-min Rain = 0
KLA1 160624Z 28001KT 03/01 A3017 RMK A01 T00260010  RH  089%=      5-min Rain = 0
KLA1 160625Z 28001KT 03/01 A3017 RMK A01 T00260010  RH  089%=      5-min Rain = 0
KLA1 160626Z 28001KT 03/01 A3017 RMK A01 T00260011  RH  090%=      5-min Rain = 0
KLA1 160627Z 28001KT 03/01 A3017 RMK A01 T00260012  RH  090%=      5-min Rain = 0
KLA1 160628Z 28000KT 03/01 A3017 RMK A01 T00260012  RH  090%=      5-min Rain = 0
KLA1 160629Z 28000KT 03/01 A3017 RMK A01 T00260012  RH  090%=      5-min Rain = 0
KLA1 160630Z 00000KT 03/01 A3017 RMK A01 T00260011  RH  090%=      5-min Rain = 0
KLA1 160631Z 00000KT 03/01 A3017 RMK A01 T00250010  RH  090%=      5-min Rain = 0
KLA1 160632Z 00000KT 02/01 A3017 RMK A01 T00240008  RH  089%=      5-min Rain = 0
KLA1 160633Z 00000KT 02/01 A3017 RMK A01 T00230007  RH  089%=      5-min Rain = 0
KLA1 160634Z 00000KT 02/01 A3017 RMK A01 T00220005  RH  089%=      5-min Rain = 0
KLA1 160635Z 18001KT 02/01 A3018 RMK A01 T00210005  RH  089%=      5-min Rain = 0
KLA1 160636Z 18000KT 02/00 A3018 RMK A01 T00200003  RH  089%=      5-min Rain = 0
KLA1 160637Z 00000KT 02/00 A3018 RMK A01 T00200003  RH  089%=      5-min Rain = 0
KLA1 160638Z 00000KT 02/00 A3017 RMK A01 T00190004  RH  089%=      5-min Rain = 0
KLA1 160639Z 00000KT 02/00 A3017 RMK A01 T00190004  RH  090%=      5-min Rain = 0
KLA1 160640Z 00000KT 02/00 A3017 RMK A01 T00190004  RH  090%=      5-min Rain = 0
KLA1 160641Z 00000KT 02/01 A3017 RMK A01 T00190005  RH  091%=      5-min Rain = 0
KLA1 160642Z 00000KT 02/01 A3017 RMK A01 T00190006  RH  091%=      5-min Rain = 0
KLA1 160643Z 00000KT 02/01 A3017 RMK A01 T00190007  RH  092%=      5-min Rain = 0
KLA1 160644Z 00000KT 02/01 A3018 RMK A01 T00190006  RH  092%=      5-min Rain = 0
KLA1 160645Z 00000KT 02/01 A3018 RMK A01 T00180006  RH  092%=      5-min Rain = 0
KLA1 160646Z 00000KT 02/01 A3018 RMK A01 T00180006  RH  092%=      5-min Rain = 0
KLA1 160647Z 00000KT 02/01 A3018 RMK A01 T00170005  RH  092%=      5-min Rain = 0
KLA1 160648Z 25000KT 02/01 A3018 RMK A01 T00170005  RH  092%=      5-min Rain = 0
KLA1 160649Z 25001KT 02/01 A3018 RMK A01 T00170005  RH  092%=      5-min Rain = 0
KLA1 160650Z 27001KT 02/01 A3018 RMK A01 T00170006  RH  092%=      5-min Rain = 0
KLA1 160651Z 28001KT 02/01 A3018 RMK A01 T00170007  RH  093%=      5-min Rain = 0
KLA1 160652Z 28001KT 02/01 A3018 RMK A01 T00170007  RH  093%=      5-min Rain = 0
KLA1 160653Z 29001KT 02/01 A3018 RMK A01 T00170007  RH  093%=      5-min Rain = 0
KLA1 160654Z 28001KT 02/01 A3017 RMK A01 T00170007  RH  093%=      5-min Rain = 0
KLA1 160655Z 00000KT 02/01 A3017 RMK A01 T00170008  RH  094%=      5-min Rain = 0
KLA1 160656Z 00000KT 02/01 A3017 RMK A01 T00180009  RH  094%=      5-min Rain = 0
KLA1 160657Z 00000KT 02/01 A3017 RMK A01 T00190011  RH  094%=      5-min Rain = 0
KLA1 160658Z 00000KT 02/01 A3017 RMK A01 T00200011  RH  094%=      5-min Rain = 0
KLA1 160659Z 00000KT 02/01 A3017 RMK A01 T00200010  RH  093%=      5-min Rain = 0
KLA1 160700Z 02000KT 02/01 A3017 RMK A01 T00190009  RH  093%=      5-min Rain = 0
KLA1 160701Z 03001KT 02/01 A3017 RMK A01 T00180007  RH  093%=      5-min Rain = 0
KLA1 160702Z 03001KT 02/01 A3018 RMK A01 T00170006  RH  092%=      5-min Rain = 0
KLA1 160703Z 03001KT 02/01 A3018 RMK A01 T00170006  RH  093%=      5-min Rain = 0
KLA1 160704Z 03001KT 02/01 A3018 RMK A01 T00170007  RH  093%=      5-min Rain = 0
KLA1 160705Z 04001KT 02/01 A3018 RMK A01 T00170007  RH  093%=      5-min Rain = 0
KLA1 160706Z 03001KT 02/01 A3018 RMK A01 T00170006  RH  092%=      5-min Rain = 0
KLA1 160707Z 03001KT 02/01 A3018 RMK A01 T00170006  RH  092%=      5-min Rain = 0
KLA1 160708Z 02001KT 02/01 A3018 RMK A01 T00170005  RH  092%=      5-min Rain = 0
KLA1 160709Z 03000KT 02/01 A3018 RMK A01 T00170006  RH  092%=      5-min Rain = 0
KLA1 160710Z 03000KT 02/01 A3018 RMK A01 T00180007  RH  093%=      5-min Rain = 0
KLA1 160711Z 00000KT 02/01 A3018 RMK A01 T00200009  RH  093%=      5-min Rain = 0
KLA1 160712Z 00000KT 02/01 A3018 RMK A01 T00210010  RH  093%=      5-min Rain = 0
KLA1 160713Z 00000KT 02/01 A3018 RMK A01 T00210010  RH  092%=      5-min Rain = 0
KLA1 160714Z 00000KT 02/01 A3018 RMK A01 T00220009  RH  092%=      5-min Rain = 0
KLA1 160715Z 03000KT 02/01 A3018 RMK A01 T00210009  RH  091%=      5-min Rain = 0
KLA1 160716Z 03001KT 02/01 A3018 RMK A01 T00210008  RH  091%=      5-min Rain = 0
KLA1 160717Z 04001KT 02/01 A3018 RMK A01 T00200007  RH  091%=      5-min Rain = 0
KLA1 160718Z 04001KT 02/01 A3018 RMK A01 T00200006  RH  091%=      5-min Rain = 0
KLA1 160719Z 04001KT 02/01 A3018 RMK A01 T00200007  RH  091%=      5-min Rain = 0
KLA1 160720Z 03001KT 02/01 A3018 RMK A01 T00190007  RH  092%=      5-min Rain = 0
KLA1 160721Z 04000KT 02/01 A3018 RMK A01 T00200007  RH  092%=      5-min Rain = 0
KLA1 160722Z 00000KT 02/01 A3018 RMK A01 T00190007  RH  092%=      5-min Rain = 0
KLA1 160723Z 00000KT 02/01 A3018 RMK A01 T00190007  RH  092%=      5-min Rain = 0
KLA1 160724Z 06001KT 02/01 A3018 RMK A01 T00190007  RH  092%=      5-min Rain = 0
KLA1 160725Z 08001KT 02/01 A3018 RMK A01 T00190007  RH  092%=      5-min Rain = 0
KLA1 160726Z 10001KT 02/01 A3018 RMK A01 T00190006  RH  092%=      5-min Rain = 0
KLA1 160727Z 07001KT 02/01 A3018 RMK A01 T00180005  RH  091%=      5-min Rain = 0
KLA1 160728Z 07001KT 02/01 A3018 RMK A01 T00170005  RH  091%=      5-min Rain = 0
KLA1 160729Z 08001KT 02/01 A3018 RMK A01 T00170005  RH  092%=      5-min Rain = 0
KLA1 160730Z 08000KT 02/01 A3018 RMK A01 T00190007  RH  092%=      5-min Rain = 0
KLA1 160731Z 10000KT 02/01 A3018 RMK A01 T00170005  RH  091%=      5-min Rain = 0
KLA1 160732Z 16000KT 02/00 A3018 RMK A01 T00150002  RH  091%=      5-min Rain = 0
KLA1 160733Z 16001KT 01/00 A3018 RMK A01 T001300-0  RH  090%=      5-min Rain = 0
KLA1 160734Z 00000KT 01/M00 A3018 RMK A01 T00121002  RH  090%=      5-min Rain = 0
KLA1 160735Z 00000KT 01/M00 A3018 RMK A01 T00111002  RH  091%=      5-min Rain = 0
KLA1 160736Z 00000KT 01/M00 A3018 RMK A01 T00111002  RH  091%=      5-min Rain = 0
KLA1 160737Z 00000KT 01/M00 A3018 RMK A01 T00101002  RH  091%=      5-min Rain = 0
KLA1 160738Z 11001KT 01/M00 A3018 RMK A01 T00101003  RH  091%=      5-min Rain = 0
KLA1 160739Z 12001KT 01/M00 A3018 RMK A01 T00101002  RH  092%=      5-min Rain = 0
KLA1 160740Z 13001KT 01/00 A3018 RMK A01 T001000-0  RH  093%=      5-min Rain = 0
KLA1 160741Z 14001KT 01/00 A3018 RMK A01 T00120003  RH  094%=      5-min Rain = 0
KLA1 160742Z 13001KT 01/01 A3018 RMK A01 T00140005  RH  094%=      5-min Rain = 0
KLA1 160743Z 13001KT 01/01 A3018 RMK A01 T00140006  RH  094%=      5-min Rain = 0
KLA1 160744Z 12001KT 02/01 A3018 RMK A01 T00150006  RH  094%=      5-min Rain = 0
KLA1 160745Z 10000KT 01/01 A3018 RMK A01 T00140005  RH  094%=      5-min Rain = 0
KLA1 160746Z 11001KT 01/00 A3018 RMK A01 T00140004  RH  093%=      5-min Rain = 0
KLA1 160747Z 12001KT 01/00 A3018 RMK A01 T00130003  RH  093%=      5-min Rain = 0
KLA1 160748Z 12001KT 01/00 A3018 RMK A01 T00130002  RH  093%=      5-min Rain = 0
KLA1 160749Z 12000KT 01/00 A3018 RMK A01 T00120002  RH  093%=      5-min Rain = 0
KLA1 160750Z 11000KT 01/00 A3018 RMK A01 T00120002  RH  093%=      5-min Rain = 0
KLA1 160751Z 00000KT 01/00 A3018 RMK A01 T00110002  RH  093%=      5-min Rain = 0
KLA1 160752Z 00000KT 01/00 A3018 RMK A01 T00110002  RH  093%=      5-min Rain = 0
KLA1 160753Z 00000KT 01/00 A3018 RMK A01 T00110001  RH  093%=      5-min Rain = 0
KLA1 160754Z 05000KT 01/00 A3018 RMK A01 T00110001  RH  093%=      5-min Rain = 0
KLA1 160755Z 02000KT 01/00 A3018 RMK A01 T00100001  RH  093%=      5-min Rain = 0
KLA1 160756Z 02001KT 01/00 A3018 RMK A01 T00110001  RH  093%=      5-min Rain = 0
KLA1 160757Z 02000KT 01/00 A3018 RMK A01 T00100001  RH  093%=      5-min Rain = 0
KLA1 160758Z 00000KT 01/00 A3018 RMK A01 T000900-0  RH  093%=      5-min Rain = 0
KLA1 160759Z 00000KT 01/M00 A3018 RMK A01 T00091001  RH  093%=      5-min Rain = 0
KLA1 160800Z 00000KT 01/M00 A3018 RMK A01 T00091001  RH  093%=      5-min Rain = 0
KLA1 160801Z 00000KT 01/M00 A3018 RMK A01 T00081001  RH  093%=      5-min Rain = 0
KLA1 160802Z 00000KT 01/M00 A3018 RMK A01 T00081002  RH  093%=      5-min Rain = 0
KLA1 160803Z 00000KT 01/M00 A3018 RMK A01 T00071002  RH  093%=      5-min Rain = 0
KLA1 160804Z 00000KT 01/M00 A3018 RMK A01 T00071002  RH  094%=      5-min Rain = 0
KLA1 160805Z 00000KT 01/M00 A3018 RMK A01 T00071002  RH  094%=      5-min Rain = 0
KLA1 160806Z 00000KT 01/M00 A3018 RMK A01 T00071002  RH  094%=      5-min Rain = 0
KLA1 160807Z 00000KT 01/M00 A3018 RMK A01 T00071002  RH  094%=      5-min Rain = 0
KLA1 160808Z 00000KT 01/M00 A3018 RMK A01 T00071002  RH  094%=      5-min Rain = 0
KLA1 160809Z 00000KT 01/M00 A3018 RMK A01 T00071001  RH  094%=      5-min Rain = 0
KLA1 160810Z 00000KT 01/M00 A3018 RMK A01 T00071001  RH  094%=      5-min Rain = 0
KLA1 160811Z 00000KT 01/M00 A3018 RMK A01 T00071001  RH  095%=      5-min Rain = 0
KLA1 160812Z 27000KT 01/M00 A3018 RMK A01 T00071001  RH  095%=      5-min Rain = 0
KLA1 160813Z 27000KT 01/M00 A3018 RMK A01 T00071001  RH  095%=      5-min Rain = 0
KLA1 160814Z 28000KT 01/00 A3017 RMK A01 T000700-0  RH  095%=      5-min Rain = 0
KLA1 160815Z 00000KT 01/00 A3017 RMK A01 T000700-0  RH  095%=      5-min Rain = 0
KLA1 160816Z 00000KT 01/00 A3017 RMK A01 T00070000  RH  095%=      5-min Rain = 0
KLA1 160817Z 00000KT 01/00 A3017 RMK A01 T00070000  RH  095%=      5-min Rain = 0
KLA1 160818Z 00000KT 01/00 A3017 RMK A01 T00080002  RH  096%=      5-min Rain = 0
KLA1 160819Z 00000KT 01/00 A3017 RMK A01 T00090003  RH  096%=      5-min Rain = 0
KLA1 160820Z 00000KT 01/00 A3017 RMK A01 T00090003  RH  096%=      5-min Rain = 0
KLA1 160821Z 00000KT 01/00 A3017 RMK A01 T00080002  RH  096%=      5-min Rain = 0
KLA1 160822Z 00000KT 01/00 A3017 RMK A01 T00080002  RH  096%=      5-min Rain = 0
KLA1 160823Z 00000KT 01/00 A3017 RMK A01 T00090003  RH  096%=      5-min Rain = 0
KLA1 160824Z 00000KT 01/00 A3017 RMK A01 T00090003  RH  096%=      5-min Rain = 0
KLA1 160825Z 00000KT 01/00 A3017 RMK A01 T00080002  RH  096%=      5-min Rain = 0
KLA1 160826Z 00000KT 01/00 A3017 RMK A01 T00080002  RH  096%=      5-min Rain = 0
KLA1 160827Z 13000KT 01/00 A3017 RMK A01 T00080002  RH  096%=      5-min Rain = 0
KLA1 160828Z 10000KT 01/00 A3017 RMK A01 T00080002  RH  096%=      5-min Rain = 0
KLA1 160829Z 09001KT 01/00 A3017 RMK A01 T00080002  RH  096%=      5-min Rain = 0
KLA1 160830Z 09001KT 01/00 A3017 RMK A01 T00090002  RH  095%=      5-min Rain = 0
KLA1 160831Z 09001KT 01/00 A3017 RMK A01 T00090002  RH  095%=      5-min Rain = 0
KLA1 160832Z 11001KT 01/00 A3017 RMK A01 T00090002  RH  095%=      5-min Rain = 0
KLA1 160833Z 10001KT 01/00 A3017 RMK A01 T00090002  RH  095%=      5-min Rain = 0
KLA1 160834Z 08001KT 01/00 A3017 RMK A01 T00090002  RH  095%=      5-min Rain = 0
KLA1 160835Z 07001KT 01/00 A3017 RMK A01 T00090002  RH  095%=      5-min Rain = 0
KLA1 160836Z 07001KT 01/00 A3017 RMK A01 T00090001  RH  094%=      5-min Rain = 0
KLA1 160837Z 07001KT 01/00 A3017 RMK A01 T00090001  RH  094%=      5-min Rain = 0
KLA1 160838Z 08001KT 01/00 A3017 RMK A01 T00090001  RH  094%=      5-min Rain = 0
KLA1 160839Z 06001KT 01/00 A3017 RMK A01 T00100003  RH  095%=      5-min Rain = 0
KLA1 160840Z 06001KT 01/00 A3017 RMK A01 T00110004  RH  095%=      5-min Rain = 0
KLA1 160841Z 08001KT 01/01 A3017 RMK A01 T00120005  RH  095%=      5-min Rain = 0
KLA1 160842Z 10001KT 01/01 A3017 RMK A01 T00130005  RH  095%=      5-min Rain = 0
KLA1 160843Z 10001KT 01/01 A3017 RMK A01 T00140007  RH  095%=      5-min Rain = 0
KLA1 160844Z 11001KT 02/01 A3017 RMK A01 T00150007  RH  095%=      5-min Rain = 0
KLA1 160845Z 10001KT 02/01 A3017 RMK A01 T00150007  RH  094%=      5-min Rain = 0
KLA1 160846Z 09001KT 02/01 A3017 RMK A01 T00160008  RH  094%=      5-min Rain = 0
KLA1 160847Z 10001KT 02/01 A3017 RMK A01 T00180009  RH  094%=      5-min Rain = 0
KLA1 160848Z 09000KT 02/01 A3016 RMK A01 T00180007  RH  093%=      5-min Rain = 0
KLA1 160849Z 00000KT 02/01 A3016 RMK A01 T00170006  RH  092%=      5-min Rain = 0
KLA1 160850Z 00000KT 02/01 A3016 RMK A01 T00170005  RH  092%=      5-min Rain = 0
KLA1 160851Z 00000KT 02/00 A3016 RMK A01 T00160003  RH  092%=      5-min Rain = 0
KLA1 160852Z 34000KT 02/00 A3016 RMK A01 T00150002  RH  091%=      5-min Rain = 0
KLA1 160853Z 31002KT 01/00 A3016 RMK A01 T00130000  RH  091%=      5-min Rain = 0
KLA1 160854Z 29003KT 01/00 A3016 RMK A01 T00120001  RH  092%=      5-min Rain = 0
KLA1 160855Z 29002KT 01/00 A3016 RMK A01 T00120002  RH  093%=      5-min Rain = 0
KLA1 160856Z 28002KT 01/00 A3016 RMK A01 T00120002  RH  093%=      5-min Rain = 0
KLA1 160857Z 27002KT 01/00 A3016 RMK A01 T00120003  RH  093%=      5-min Rain = 0
KLA1 160858Z 28003KT 01/00 A3016 RMK A01 T00120003  RH  094%=      5-min Rain = 0
KLA1 160859Z 28003KT 01/00 A3016 RMK A01 T00120003  RH  094%=      5-min Rain = 0
KLA1 160900Z 28003KT 01/00 A3016 RMK A01 T00120004  RH  094%=      5-min Rain = 0
KLA1 160901Z 27002KT 01/01 A3016 RMK A01 T00130006  RH  095%=      5-min Rain = 0
KLA1 160902Z 27002KT 02/01 A3016 RMK A01 T00150007  RH  095%=      5-min Rain = 0
KLA1 160903Z 28001KT 02/01 A3016 RMK A01 T00150008  RH  095%=      5-min Rain = 0
KLA1 160904Z 27001KT 02/01 A3016 RMK A01 T00160007  RH  094%=      5-min Rain = 0
KLA1 160905Z 27002KT 02/01 A3016 RMK A01 T00150007  RH  094%=      5-min Rain = 0
KLA1 160906Z 25001KT 02/01 A3016 RMK A01 T00150006  RH  094%=      5-min Rain = 0
KLA1 160907Z 25001KT 02/01 A3016 RMK A01 T00150006  RH  094%=      5-min Rain = 0
KLA1 160908Z 25001KT 01/01 A3016 RMK A01 T00140005  RH  094%=      5-min Rain = 0
KLA1 160909Z 24001KT 01/00 A3016 RMK A01 T00130004  RH  094%=      5-min Rain = 0
KLA1 160910Z 00000KT 01/00 A3016 RMK A01 T00110002  RH  094%=      5-min Rain = 0
KLA1 160911Z 00000KT 01/00 A3016 RMK A01 T000900-0  RH  093%=      5-min Rain = 0
KLA1 160912Z 00000KT 01/M00 A3016 RMK A01 T00081002  RH  093%=      5-min Rain = 0
KLA1 160913Z 00000KT 01/M00 A3016 RMK A01 T00071003  RH  093%=      5-min Rain = 0
KLA1 160914Z 00000KT 01/M00 A3016 RMK A01 T00061004  RH  093%=      5-min Rain = 0
KLA1 160915Z 00000KT 01/M00 A3016 RMK A01 T00051004  RH  094%=      5-min Rain = 0
KLA1 160916Z 00000KT 01/M00 A3016 RMK A01 T00051003  RH  094%=      5-min Rain = 0
KLA1 160917Z 00000KT 01/M00 A3016 RMK A01 T00061002  RH  095%=      5-min Rain = 0
KLA1 160918Z 00000KT 01/M00 A3016 RMK A01 T00071001  RH  095%=      5-min Rain = 0
KLA1 160919Z 00000KT 01/00 A3016 RMK A01 T00070000  RH  095%=      5-min Rain = 0
KLA1 160920Z 00000KT 01/00 A3016 RMK A01 T00080001  RH  095%=      5-min Rain = 0
KLA1 160921Z 07001KT 01/00 A3016 RMK A01 T00090002  RH  096%=      5-min Rain = 0
KLA1 160922Z 07001KT 01/00 A3016 RMK A01 T00090003  RH  096%=      5-min Rain = 0
KLA1 160923Z 08001KT 01/00 A3016 RMK A01 T00100004  RH  096%=      5-min Rain = 0
KLA1 160924Z 01000KT 01/00 A3016 RMK A01 T00100004  RH  096%=      5-min Rain = 0
KLA1 160925Z 00002KT 01/01 A3016 RMK A01 T00110005  RH  096%=      5-min Rain = 0
KLA1 160926Z 00002KT 01/01 A3016 RMK A01 T00120006  RH  096%=      5-min Rain = 0
KLA1 160927Z 01002KT 01/01 A3016 RMK A01 T00130007  RH  096%=      5-min Rain = 0
KLA1 160928Z 01003KT 01/01 A3016 RMK A01 T00140007  RH  096%=      5-min Rain = 0
KLA1 160929Z 01003KT 01/01 A3016 RMK A01 T00140008  RH  095%=      5-min Rain = 0
KLA1 160930Z 01003KT 01/01 A3016 RMK A01 T00140007  RH  095%=      5-min Rain = 0
KLA1 160931Z 00003KT 02/01 A3015 RMK A01 T00150007  RH  095%=      5-min Rain = 0
KLA1 160932Z 01003KT 02/01 A3015 RMK A01 T00150007  RH  094%=      5-min Rain = 0
KLA1 160933Z 01002KT 02/01 A3015 RMK A01 T00150006  RH  094%=      5-min Rain = 0
KLA1 160934Z 01002KT 02/01 A3015 RMK A01 T00150006  RH  094%=      5-min Rain = 0
KLA1 160935Z 00002KT 02/01 A3015 RMK A01 T00150007  RH  094%=      5-min Rain = 0
KLA1 160936Z 36001KT 02/01 A3016 RMK A01 T00160007  RH  094%=      5-min Rain = 0
KLA1 160937Z 34000KT 02/01 A3016 RMK A01 T00160008  RH  094%=      5-min Rain = 0
KLA1 160938Z 25000KT 02/01 A3016 RMK A01 T00160008  RH  094%=      5-min Rain = 0
KLA1 160939Z 25001KT 02/01 A3016 RMK A01 T00170008  RH  094%=      5-min Rain = 0
KLA1 160940Z 25001KT 02/01 A3016 RMK A01 T00150005  RH  093%=      5-min Rain = 0
KLA1 160941Z 26001KT 01/00 A3016 RMK A01 T00130003  RH  093%=      5-min Rain = 0
KLA1 160942Z 26001KT 01/00 A3016 RMK A01 T00120001  RH  093%=      5-min Rain = 0
KLA1 160943Z 25001KT 01/00 A3016 RMK A01 T00110001  RH  093%=      5-min Rain = 0
KLA1 160944Z 24001KT 01/00 A3016 RMK A01 T00100001  RH  093%=      5-min Rain = 0
KLA1 160945Z 24000KT 01/00 A3016 RMK A01 T00090000  RH  093%=      5-min Rain = 0
KLA1 160946Z 00000KT 01/00 A3015 RMK A01 T00090000  RH  094%=      5-min Rain = 0
KLA1 160947Z 00000KT 01/00 A3015 RMK A01 T000900-0  RH  094%=      5-min Rain = 0
KLA1 160948Z 00000KT 01/00 A3015 RMK A01 T000800-0  RH  094%=      5-min Rain = 0
KLA1 160949Z 00000KT 01/00 A3015 RMK A01 T000800-0  RH  094%=      5-min Rain = 0
KLA1 160950Z 00000KT 01/00 A3015 RMK A01 T000800-0  RH  094%=      5-min Rain = 0
KLA1 160951Z 31001KT 01/00 A3015 RMK A01 T000800-0  RH  095%=      5-min Rain = 0
KLA1 160952Z 33001KT 01/00 A3015 RMK A01 T00080000  RH  095%=      5-min Rain = 0
KLA1 160953Z 35001KT 01/00 A3015 RMK A01 T00080001  RH  095%=      5-min Rain = 0
KLA1 160954Z 35001KT 01/00 A3015 RMK A01 T00090002  RH  095%=      5-min Rain = 0
KLA1 160955Z 35001KT 01/00 A3015 RMK A01 T00090002  RH  095%=      5-min Rain = 0
KLA1 160956Z 00001KT 01/00 A3015 RMK A01 T00090003  RH  095%=      5-min Rain = 0
KLA1 160957Z 01001KT 01/00 A3015 RMK A01 T00090002  RH  095%=      5-min Rain = 0
KLA1 160958Z 02001KT 01/00 A3015 RMK A01 T00090003  RH  095%=      5-min Rain = 0
KLA1 160959Z 04001KT 01/00 A3015 RMK A01 T00090002  RH  095%=      5-min Rain = 0
KLA1 161000Z 03001KT 01/00 A3015 RMK A01 T00090002  RH  095%=      5-min Rain = 0
KLA1 161001Z 02001KT 01/00 A3015 RMK A01 T00090003  RH  095%=      5-min Rain = 0
KLA1 161002Z 01001KT 01/00 A3015 RMK A01 T00090003  RH  095%=      5-min Rain = 0
KLA1 161003Z 01000KT 01/00 A3015 RMK A01 T00090003  RH  096%=      5-min Rain = 0
KLA1 161004Z 00000KT 01/00 A3015 RMK A01 T00090003  RH  096%=      5-min Rain = 0
KLA1 161005Z 00000KT 01/00 A3015 RMK A01 T00090003  RH  096%=      5-min Rain = 0
KLA1 161006Z 26000KT 01/00 A3015 RMK A01 T00090003  RH  096%=      5-min Rain = 0
KLA1 161007Z 26001KT 01/00 A3015 RMK A01 T00090003  RH  096%=      5-min Rain = 0
KLA1 161008Z 27001KT 01/00 A3015 RMK A01 T00090003  RH  096%=      5-min Rain = 0
KLA1 161009Z 27001KT 01/00 A3015 RMK A01 T00100004  RH  096%=      5-min Rain = 0
KLA1 161010Z 28001KT 01/00 A3015 RMK A01 T00100004  RH  096%=      5-min Rain = 0
KLA1 161011Z 28001KT 01/00 A3015 RMK A01 T00100004  RH  096%=      5-min Rain = 0
KLA1 161012Z 28001KT 01/00 A3015 RMK A01 T00100004  RH  096%=      5-min Rain = 0
KLA1 161013Z 28001KT 01/00 A3015 RMK A01 T00100004  RH  096%=      5-min Rain = 0
KLA1 161014Z 28000KT 01/00 A3015 RMK A01 T00090003  RH  096%=      5-min Rain = 0
KLA1 161015Z 00000KT 01/00 A3015 RMK A01 T00090003  RH  096%=      5-min Rain = 0
KLA1 161016Z 00000KT 01/00 A3015 RMK A01 T00080002  RH  096%=      5-min Rain = 0
KLA1 161017Z 00000KT 01/00 A3015 RMK A01 T00080001  RH  096%=      5-min Rain = 0
KLA1 161018Z 00000KT 01/00 A3015 RMK A01 T00070000  RH  096%=      5-min Rain = 0
KLA1 161019Z 00000KT 01/00 A3015 RMK A01 T000600-0  RH  096%=      5-min Rain = 0
KLA1 161020Z 00000KT 01/M00 A3015 RMK A01 T00061001  RH  096%=      5-min Rain = 0
KLA1 161021Z 00000KT 01/M00 A3015 RMK A01 T00051001  RH  095%=      5-min Rain = 0
KLA1 161022Z 00000KT 01/M00 A3015 RMK A01 T00051001  RH  096%=      5-min Rain = 0
KLA1 161023Z 00000KT 01/00 A3015 RMK A01 T000600-0  RH  096%=      5-min Rain = 0
KLA1 161024Z 00000KT 01/00 A3015 RMK A01 T00060001  RH  096%=      5-min Rain = 0
KLA1 161025Z 00000KT 01/00 A3015 RMK A01 T00060001  RH  096%=      5-min Rain = 0
KLA1 161026Z 02000KT 01/00 A3015 RMK A01 T00070001  RH  096%=      5-min Rain = 0
KLA1 161027Z 02000KT 01/00 A3015 RMK A01 T00070001  RH  096%=      5-min Rain = 0
KLA1 161028Z 03000KT 01/00 A3015 RMK A01 T00070002  RH  096%=      5-min Rain = 0
KLA1 161029Z 03001KT 01/00 A3015 RMK A01 T00080002  RH  096%=      5-min Rain = 0
KLA1 161030Z 03001KT 01/00 A3015 RMK A01 T00080003  RH  096%=      5-min Rain = 0
KLA1 161031Z 03001KT 01/00 A3014 RMK A01 T00080003  RH  096%=      5-min Rain = 0
KLA1 161032Z 03001KT 01/00 A3014 RMK A01 T00080003  RH  096%=      5-min Rain = 0
KLA1 161033Z 02000KT 01/00 A3014 RMK A01 T00080003  RH  096%=      5-min Rain = 0
KLA1 161034Z 01000KT 01/00 A3015 RMK A01 T00080002  RH  096%=      5-min Rain = 0
KLA1 161035Z 36000KT 01/00 A3015 RMK A01 T00070001  RH  096%=      5-min Rain = 0
KLA1 161036Z 00000KT 01/00 A3015 RMK A01 T00070001  RH  096%=      5-min Rain = 0
KLA1 161037Z 26000KT 01/00 A3015 RMK A01 T00070001  RH  096%=      5-min Rain = 0
KLA1 161038Z 25000KT 01/00 A3015 RMK A01 T000600-0  RH  096%=      5-min Rain = 0
KLA1 161039Z 25000KT 01/M00 A3014 RMK A01 T00051001  RH  096%=      5-min Rain = 0
KLA1 161040Z 00000KT 00/M00 A3014 RMK A01 T00041002  RH  096%=      5-min Rain = 0
KLA1 161041Z 24000KT 00/M00 A3014 RMK A01 T00041002  RH  096%=      5-min Rain = 0
KLA1 161042Z 00000KT 00/M00 A3014 RMK A01 T00031003  RH  096%=      5-min Rain = 0
KLA1 161043Z 00000KT 00/M00 A3014 RMK A01 T00031003  RH  096%=      5-min Rain = 0
KLA1 161044Z 00000KT 00/M00 A3014 RMK A01 T00031003  RH  096%=      5-min Rain = 0
KLA1 161045Z 00000KT 00/M00 A3014 RMK A01 T00031003  RH  096%=      5-min Rain = 0
KLA1 161046Z 00000KT 00/M00 A3014 RMK A01 T00031003  RH  096%=      5-min Rain = 0
KLA1 161047Z 00000KT 00/M00 A3014 RMK A01 T00031003  RH  096%=      5-min Rain = 0
KLA1 161048Z 00000KT 00/M00 A3014 RMK A01 T00031003  RH  096%=      5-min Rain = 0
KLA1 161049Z 00000KT 00/M00 A3014 RMK A01 T00031003  RH  096%=      5-min Rain = 0
KLA1 161050Z 00000KT 00/M00 A3014 RMK A01 T00021003  RH  096%=      5-min Rain = 0
KLA1 161051Z 00000KT 00/M00 A3014 RMK A01 T00021003  RH  096%=      5-min Rain = 0
KLA1 161052Z 00000KT 00/M00 A3014 RMK A01 T00021003  RH  096%=      5-min Rain = 0
KLA1 161053Z 00000KT 00/M00 A3014 RMK A01 T00021003  RH  096%=      5-min Rain = 0
KLA1 161054Z 00000KT 00/M00 A3014 RMK A01 T00021003  RH  096%=      5-min Rain = 0
KLA1 161055Z 00000KT 00/M00 A3014 RMK A01 T00021003  RH  096%=      5-min Rain = 0
KLA1 161056Z 00000KT 00/M00 A3014 RMK A01 T00021003  RH  097%=      5-min Rain = 0
KLA1 161057Z 00000KT 00/M00 A3014 RMK A01 T00021003  RH  096%=      5-min Rain = 0
KLA1 161058Z 04000KT 00/M00 A3014 RMK A01 T00021003  RH  097%=      5-min Rain = 0
KLA1 161059Z 04001KT 00/M00 A3014 RMK A01 T00021003  RH  097%=      5-min Rain = 0
KLA1 161100Z 04001KT 00/M00 A3014 RMK A01 T00021003  RH  097%=      5-min Rain = 0
KLA1 161101Z 03001KT 00/M00 A3014 RMK A01 T00011004  RH  097%=      5-min Rain = 0
KLA1 161102Z 03001KT 00/M00 A3014 RMK A01 T00011004  RH  097%=      5-min Rain = 0
KLA1 161103Z 03001KT 00/01 A3014 RMK A01 T000000-5  RH  097%=      5-min Rain = 0
KLA1 161104Z 03001KT 00/00 A3014 RMK A01 T000000-4  RH  097%=      5-min Rain = 0
KLA1 161105Z 04001KT 00/M00 A3014 RMK A01 T00011003  RH  097%=      5-min Rain = 0
KLA1 161106Z 04001KT 00/M00 A3014 RMK A01 T00021002  RH  097%=      5-min Rain = 0
KLA1 161107Z 04001KT 00/M00 A3014 RMK A01 T00031001  RH  097%=      5-min Rain = 0
KLA1 161108Z 04000KT 00/00 A3014 RMK A01 T00040001  RH  097%=      5-min Rain = 0
KLA1 161109Z 00000KT 01/00 A3014 RMK A01 T00050001  RH  097%=      5-min Rain = 0
KLA1 161110Z 00000KT 01/00 A3014 RMK A01 T00050001  RH  097%=      5-min Rain = 0
KLA1 161111Z 00000KT 01/00 A3014 RMK A01 T00050002  RH  097%=      5-min Rain = 0
KLA1 161112Z 00000KT 01/00 A3014 RMK A01 T00050001  RH  097%=      5-min Rain = 0
KLA1 161113Z 00000KT 01/00 A3014 RMK A01 T00050001  RH  097%=      5-min Rain = 0
KLA1 161114Z 00000KT 00/00 A3014 RMK A01 T00040000  RH  097%=      5-min Rain = 0
KLA1 161115Z 09001KT 00/00 A3014 RMK A01 T000400-0  RH  097%=      5-min Rain = 0
KLA1 161116Z 10001KT 00/00 A3014 RMK A01 T000400-0  RH  097%=      5-min Rain = 0
KLA1 161117Z 10001KT 00/M00 A3014 RMK A01 T00031001  RH  097%=      5-min Rain = 0
KLA1 161118Z 09001KT 00/M00 A3014 RMK A01 T00021002  RH  097%=      5-min Rain = 0
KLA1 161119Z 10001KT 00/M00 A3014 RMK A01 T00021002  RH  097%=      5-min Rain = 0
KLA1 161120Z 09001KT 00/M00 A3014 RMK A01 T00011003  RH  097%=      5-min Rain = 0
KLA1 161121Z 07001KT 00/M00 A3014 RMK A01 T00021003  RH  097%=      5-min Rain = 0
KLA1 161122Z 09001KT 00/M00 A3014 RMK A01 T00031001  RH  097%=      5-min Rain = 0
KLA1 161123Z 09000KT 01/00 A3014 RMK A01 T00050001  RH  097%=      5-min Rain = 0
KLA1 161124Z 09000KT 01/00 A3014 RMK A01 T00070003  RH  098%=      5-min Rain = 0
KLA1 161125Z 00000KT 01/00 A3014 RMK A01 T00080004  RH  098%=      5-min Rain = 0
KLA1 161126Z 00000KT 01/01 A3014 RMK A01 T00090005  RH  098%=      5-min Rain = 0
KLA1 161127Z 00000KT 01/01 A3014 RMK A01 T00100007  RH  098%=      5-min Rain = 0
KLA1 161128Z 00000KT 01/01 A3014 RMK A01 T00100007  RH  098%=      5-min Rain = 0
KLA1 161129Z 00000KT 01/01 A3014 RMK A01 T00110007  RH  098%=      5-min Rain = 0
KLA1 161130Z 00000KT 01/01 A3014 RMK A01 T00100006  RH  097%=      5-min Rain = 0
KLA1 161131Z 30000KT 01/01 A3014 RMK A01 T00090005  RH  097%=      5-min Rain = 0
KLA1 161132Z 00000KT 01/00 A3014 RMK A01 T00080004  RH  097%=      5-min Rain = 0
KLA1 161133Z 00000KT 01/00 A3014 RMK A01 T00070003  RH  097%=      5-min Rain = 0
KLA1 161134Z 29000KT 01/00 A3014 RMK A01 T00060002  RH  097%=      5-min Rain = 0
KLA1 161135Z 00000KT 01/00 A3014 RMK A01 T00060001  RH  097%=      5-min Rain = 0
KLA1 161136Z 01000KT 01/00 A3014 RMK A01 T00050001  RH  097%=      5-min Rain = 0
KLA1 161137Z 03001KT 01/00 A3014 RMK A01 T00050001  RH  097%=      5-min Rain = 0
KLA1 161138Z 03001KT 01/00 A3014 RMK A01 T00050001  RH  097%=      5-min Rain = 0
KLA1 161139Z 04001KT 01/00 A3014 RMK A01 T00050001  RH  097%=      5-min Rain = 0
KLA1 161140Z 05001KT 01/00 A3014 RMK A01 T00060002  RH  097%=      5-min Rain = 0
KLA1 161141Z 06000KT 01/00 A3014 RMK A01 T00060002  RH  097%=      5-min Rain = 0
KLA1 161142Z 05000KT 01/00 A3014 RMK A01 T00070002  RH  097%=      5-min Rain = 0
KLA1 161143Z 05000KT 01/00 A3014 RMK A01 T00070003  RH  097%=      5-min Rain = 0
KLA1 161144Z 05000KT 01/00 A3014 RMK A01 T00080003  RH  097%=      5-min Rain = 0
KLA1 161145Z 00000KT 01/00 A3014 RMK A01 T00080004  RH  097%=      5-min Rain = 0
KLA1 161146Z 00000KT 01/00 A3014 RMK A01 T00070003  RH  097%=      5-min Rain = 0
KLA1 161147Z 00000KT 01/00 A3014 RMK A01 T00070002  RH  097%=      5-min Rain = 0
KLA1 161148Z 00000KT 01/00 A3014 RMK A01 T00050001  RH  097%=      5-min Rain = 0
KLA1 161149Z 00000KT 00/00 A3014 RMK A01 T000400-0  RH  097%=      5-min Rain = 0
KLA1 161150Z 00000KT 00/M00 A3014 RMK A01 T00041001  RH  097%=      5-min Rain = 0
KLA1 161151Z 00000KT 00/M00 A3014 RMK A01 T00031001  RH  097%=      5-min Rain = 0
KLA1 161152Z 13000KT 00/M00 A3014 RMK A01 T00031002  RH  097%=      5-min Rain = 0
KLA1 161153Z 13000KT 00/M00 A3014 RMK A01 T00031002  RH  097%=      5-min Rain = 0
KLA1 161154Z 00000KT 00/M00 A3014 RMK A01 T00031002  RH  097%=      5-min Rain = 0
KLA1 161155Z 00000KT 00/M00 A3014 RMK A01 T00021002  RH  097%=      5-min Rain = 0
KLA1 161156Z 00000KT 00/M00 A3014 RMK A01 T00021002  RH  097%=      5-min Rain = 0
KLA1 161157Z 00000KT 00/M00 A3014 RMK A01 T00021002  RH  097%=      5-min Rain = 0
KLA1 161158Z 00000KT 00/M00 A3014 RMK A01 T00031002  RH  097%=      5-min Rain = 0
KLA1 161159Z 00000KT 00/M00 A3014 RMK A01 T00031001  RH  097%=      5-min Rain = 0
KLA1 161200Z 15000KT 00/00 A3014 RMK A01 T000400-0  RH  097%=      5-min Rain = 0
KLA1 161201Z 00000KT 00/00 A3014 RMK A01 T000400-0  RH  097%=      5-min Rain = 0
KLA1 161202Z 00000KT 00/00 A3014 RMK A01 T000400-0  RH  097%=      5-min Rain = 0
KLA1 161203Z 00000KT 00/00 A3014 RMK A01 T00040000  RH  097%=      5-min Rain = 0
KLA1 161204Z 00000KT 00/00 A3014 RMK A01 T00040000  RH  097%=      5-min Rain = 0
KLA1 161205Z 00000KT 00/00 A3014 RMK A01 T000400-0  RH  097%=      5-min Rain = 0
KLA1 161206Z 00000KT 00/00 A3014 RMK A01 T000400-0  RH  097%=      5-min Rain = 0
KLA1 161207Z 00000KT 00/M00 A3014 RMK A01 T00031001  RH  097%=      5-min Rain = 0
KLA1 161208Z 00000KT 00/M00 A3014 RMK A01 T00031001  RH  097%=      5-min Rain = 0
KLA1 161209Z 00000KT 00/M00 A3014 RMK A01 T00031001  RH  097%=      5-min Rain = 0
KLA1 161210Z 00000KT 00/M00 A3014 RMK A01 T00031001  RH  097%=      5-min Rain = 0
KLA1 161211Z 00000KT 00/M00 A3014 RMK A01 T00031001  RH  097%=      5-min Rain = 0
KLA1 161212Z 00000KT 00/M00 A3014 RMK A01 T00031002  RH  097%=      5-min Rain = 0
KLA1 161213Z 00000KT 00/M00 A3014 RMK A01 T00021002  RH  097%=      5-min Rain = 0
KLA1 161214Z 00000KT 00/M00 A3014 RMK A01 T00021002  RH  097%=      5-min Rain = 0
KLA1 161215Z 00000KT 00/M00 A3014 RMK A01 T00011003  RH  097%=      5-min Rain = 0
KLA1 161216Z 00000KT 00/M00 A3014 RMK A01 T00011003  RH  097%=      5-min Rain = 0
KLA1 161217Z 00000KT 00/M00 A3014 RMK A01 T00011004  RH  097%=      5-min Rain = 0
KLA1 161218Z 00000KT 00/01 A3014 RMK A01 T00-000-5  RH  097%=      5-min Rain = 0
KLA1 161219Z 00000KT 00/00 A3014 RMK A01 T00-000-4  RH  097%=      5-min Rain = 0
KLA1 161220Z 00000KT 00/00 A3014 RMK A01 T000000-4  RH  097%=      5-min Rain = 0
KLA1 161221Z 00000KT 00/M00 A3014 RMK A01 T00011003  RH  097%=      5-min Rain = 0
KLA1 161222Z 04000KT 00/M00 A3014 RMK A01 T00011003  RH  097%=      5-min Rain = 0
KLA1 161223Z 03001KT 00/M00 A3014 RMK A01 T00011003  RH  097%=      5-min Rain = 0
KLA1 161224Z 03001KT 00/M00 A3014 RMK A01 T00021002  RH  097%=      5-min Rain = 0
KLA1 161225Z 03000KT 00/M00 A3014 RMK A01 T00021002  RH  097%=      5-min Rain = 0
KLA1 161226Z 00000KT 00/M00 A3014 RMK A01 T00021002  RH  097%=      5-min Rain = 0
KLA1 161227Z 00000KT 00/M00 A3014 RMK A01 T00021002  RH  097%=      5-min Rain = 0
KLA1 161228Z 00000KT 00/M00 A3014 RMK A01 T00011003  RH  097%=      5-min Rain = 0
KLA1 161229Z 00000KT 00/M00 A3014 RMK A01 T00011003  RH  097%=      5-min Rain = 0
KLA1 161230Z 00000KT 00/00 A3014 RMK A01 T000000-4  RH  097%=      5-min Rain = 0
KLA1 161231Z 00000KT 00/00 A3014 RMK A01 T000000-4  RH  097%=      5-min Rain = 0
KLA1 161232Z 00000KT 00/00 A3014 RMK A01 T00-000-4  RH  097%=      5-min Rain = 0
KLA1 161233Z 00000KT 00/00 A3014 RMK A01 T00-000-4  RH  097%=      5-min Rain = 0
KLA1 161234Z 00000KT M00/M01 A3014 RMK A01 T10011005  RH  097%=      5-min Rain = 0
KLA1 161235Z 00000KT M00/M01 A3014 RMK A01 T10011005  RH  097%=      5-min Rain = 0
KLA1 161236Z 00000KT M00/M01 A3014 RMK A01 T10011005  RH  097%=      5-min Rain = 0
KLA1 161237Z 00000KT M00/M01 A3014 RMK A01 T10011005  RH  097%=      5-min Rain = 0
KLA1 161238Z 00000KT M00/M00 A3014 RMK A01 T10011004  RH  097%=      5-min Rain = 0
KLA1 161239Z 00000KT 00/00 A3014 RMK A01 T00-000-4  RH  097%=      5-min Rain = 0
KLA1 161240Z 00000KT 00/00 A3014 RMK A01 T000000-4  RH  097%=      5-min Rain = 0
KLA1 161241Z 00000KT 00/M00 A3014 RMK A01 T00011003  RH  098%=      5-min Rain = 0
KLA1 161242Z 00000KT 00/M00 A3014 RMK A01 T00011002  RH  098%=      5-min Rain = 0
KLA1 161243Z 00000KT 00/M00 A3014 RMK A01 T00021001  RH  098%=      5-min Rain = 0
KLA1 161244Z 00000KT 00/M00 A3014 RMK A01 T00031001  RH  098%=      5-min Rain = 0
KLA1 161245Z 00000KT 00/00 A3014 RMK A01 T00030000  RH  098%=      5-min Rain = 0
KLA1 161246Z 00000KT 00/00 A3014 RMK A01 T00040001  RH  098%=      5-min Rain = 0
KLA1 161247Z 00000KT 00/00 A3014 RMK A01 T00040001  RH  098%=      5-min Rain = 0
KLA1 161248Z 00000KT 00/00 A3014 RMK A01 T00040001  RH  098%=      5-min Rain = 0
KLA1 161249Z 00000KT 00/00 A3014 RMK A01 T00040001  RH  098%=      5-min Rain = 0
KLA1 161250Z 00000KT 00/00 A3014 RMK A01 T00040001  RH  098%=      5-min Rain = 0
KLA1 161251Z 00000KT 00/00 A3014 RMK A01 T00040001  RH  098%=      5-min Rain = 0
KLA1 161252Z 00000KT 00/00 A3014 RMK A01 T00040001  RH  098%=      5-min Rain = 0
KLA1 161253Z 00000KT 00/00 A3014 RMK A01 T00040001  RH  098%=      5-min Rain = 0
KLA1 161254Z 00000KT 00/00 A3014 RMK A01 T00030000  RH  098%=      5-min Rain = 0
KLA1 161255Z 00000KT 00/00 A3014 RMK A01 T00040000  RH  098%=      5-min Rain = 0
KLA1 161256Z 00000KT 00/00 A3014 RMK A01 T00030000  RH  098%=      5-min Rain = 0
KLA1 161257Z 00000KT 00/M00 A3014 RMK A01 T00031001  RH  098%=      5-min Rain = 0
KLA1 161258Z 00000KT 00/M00 A3014 RMK A01 T00021001  RH  098%=      5-min Rain = 0
KLA1 161259Z 00000KT 00/M00 A3014 RMK A01 T00021001  RH  098%=      5-min Rain = 0
KLA1 161300Z 00000KT 00/M00 A3014 RMK A01 T00021002  RH  098%=      5-min Rain = 0
KLA1 161301Z 00000KT 00/M00 A3014 RMK A01 T00021002  RH  098%=      5-min Rain = 0
KLA1 161302Z 00000KT 00/M00 A3014 RMK A01 T00021002  RH  098%=      5-min Rain = 0
KLA1 161303Z 00000KT 00/M00 A3014 RMK A01 T00021002  RH  098%=      5-min Rain = 0
KLA1 161304Z 00000KT 00/M00 A3014 RMK A01 T00011002  RH  098%=      5-min Rain = 0
KLA1 161305Z 00000KT 00/M00 A3014 RMK A01 T00021001  RH  098%=      5-min Rain = 0
KLA1 161306Z 00000KT 00/M00 A3014 RMK A01 T00021001  RH  098%=      5-min Rain = 0
KLA1 161307Z 00000KT 00/M00 A3014 RMK A01 T00021002  RH  098%=      5-min Rain = 0
KLA1 161308Z 00000KT 00/M00 A3014 RMK A01 T00021002  RH  098%=      5-min Rain = 0
KLA1 161309Z 00000KT 00/M00 A3014 RMK A01 T00021001  RH  098%=      5-min Rain = 0
KLA1 161310Z 00000KT 00/M00 A3014 RMK A01 T00021002  RH  098%=      5-min Rain = 0
KLA1 161311Z 00000KT 00/M00 A3014 RMK A01 T00021001  RH  098%=      5-min Rain = 0
KLA1 161312Z 00000KT 00/M00 A3014 RMK A01 T00021001  RH  098%=      5-min Rain = 0
KLA1 161313Z 30000KT 00/00 A3014 RMK A01 T000300-0  RH  098%=      5-min Rain = 0
KLA1 161314Z 30001KT 00/00 A3014 RMK A01 T000300-0  RH  098%=      5-min Rain = 0
KLA1 161315Z 31001KT 00/M00 A3014 RMK A01 T00031001  RH  098%=      5-min Rain = 0
KLA1 161316Z 32001KT 00/M00 A3014 RMK A01 T00031001  RH  098%=      5-min Rain = 0
KLA1 161317Z 33001KT 00/00 A3014 RMK A01 T000300-0  RH  098%=      5-min Rain = 0
KLA1 161318Z 00000KT 00/00 A3014 RMK A01 T00030000  RH  098%=      5-min Rain = 0
KLA1 161319Z 00000KT 00/00 A3014 RMK A01 T00030000  RH  098%=      5-min Rain = 0
KLA1 161320Z 00000KT 00/00 A3014 RMK A01 T00030000  RH  098%=      5-min Rain = 0
KLA1 161321Z 00000KT 00/00 A3014 RMK A01 T00030000  RH  098%=      5-min Rain = 0
KLA1 161322Z 00000KT 00/00 A3014 RMK A01 T00030000  RH  098%=      5-min Rain = 0
KLA1 161323Z 00000KT 00/00 A3014 RMK A01 T000300-0  RH  098%=      5-min Rain = 0
KLA1 161324Z 00000KT 00/00 A3014 RMK A01 T00030000  RH  098%=      5-min Rain = 0
KLA1 161325Z 00000KT 00/00 A3014 RMK A01 T00030000  RH  098%=      5-min Rain = 0
KLA1 161326Z 01001KT 00/00 A3014 RMK A01 T00040001  RH  098%=      5-min Rain = 0
KLA1 161327Z 01000KT 01/00 A3014 RMK A01 T00050002  RH  098%=      5-min Rain = 0
KLA1 161328Z 00000KT 01/00 A3014 RMK A01 T00050002  RH  098%=      5-min Rain = 0
KLA1 161329Z 00000KT 01/00 A3014 RMK A01 T00050003  RH  098%=      5-min Rain = 0
KLA1 161330Z 00000KT 01/00 A3014 RMK A01 T00050002  RH  098%=      5-min Rain = 0
KLA1 161331Z 00000KT 01/00 A3014 RMK A01 T00050002  RH  098%=      5-min Rain = 0
KLA1 161332Z 00000KT 01/00 A3014 RMK A01 T00050002  RH  098%=      5-min Rain = 0
KLA1 161333Z 00000KT 01/00 A3014 RMK A01 T00050002  RH  098%=      5-min Rain = 0
KLA1 161334Z 00000KT 01/00 A3014 RMK A01 T00050002  RH  098%=      5-min Rain = 0
KLA1 161335Z 00000KT 01/00 A3014 RMK A01 T00050002  RH  098%=      5-min Rain = 0
KLA1 161336Z 00000KT 01/00 A3014 RMK A01 T00050002  RH  098%=      5-min Rain = 0
KLA1 161337Z 00000KT 00/00 A3014 RMK A01 T00040001  RH  098%=      5-min Rain = 0
KLA1 161338Z 00000KT 01/00 A3014 RMK A01 T00050002  RH  098%=      5-min Rain = 0
KLA1 161339Z 00000KT 00/00 A3014 RMK A01 T00040001  RH  098%=      5-min Rain = 0
KLA1 161340Z 00000KT 01/00 A3014 RMK A01 T00050001  RH  098%=      5-min Rain = 0
KLA1 161341Z 00000KT 00/00 A3014 RMK A01 T00040001  RH  098%=      5-min Rain = 0
KLA1 161342Z 00000KT 01/00 A3014 RMK A01 T00050002  RH  098%=      5-min Rain = 0
KLA1 161343Z 00000KT 01/00 A3014 RMK A01 T00060003  RH  098%=      5-min Rain = 0
KLA1 161344Z 00000KT 01/00 A3014 RMK A01 T00070004  RH  098%=      5-min Rain = 0
KLA1 161345Z 00000KT 01/00 A3014 RMK A01 T00070004  RH  098%=      5-min Rain = 0
KLA1 161346Z 00000KT 01/00 A3014 RMK A01 T00070004  RH  098%=      5-min Rain = 0
KLA1 161347Z 00000KT 01/00 A3014 RMK A01 T00070004  RH  098%=      5-min Rain = 0
KLA1 161348Z 00000KT 01/00 A3014 RMK A01 T00070004  RH  098%=      5-min Rain = 0
KLA1 161349Z 00000KT 01/00 A3014 RMK A01 T00070004  RH  098%=      5-min Rain = 0
KLA1 161350Z 00000KT 01/00 A3014 RMK A01 T00070004  RH  098%=      5-min Rain = 0
KLA1 161351Z 00000KT 01/00 A3014 RMK A01 T00070004  RH  098%=      5-min Rain = 0
KLA1 161352Z 00000KT 01/00 A3014 RMK A01 T00070004  RH  098%=      5-min Rain = 0
KLA1 161353Z 00000KT 01/00 A3014 RMK A01 T00080004  RH  098%=      5-min Rain = 0
KLA1 161354Z 00000KT 01/01 A3014 RMK A01 T00080005  RH  098%=      5-min Rain = 0
KLA1 161355Z 00000KT 01/01 A3014 RMK A01 T00090006  RH  098%=      5-min Rain = 0
KLA1 161356Z 00000KT 01/01 A3014 RMK A01 T00100006  RH  098%=      5-min Rain = 0
KLA1 161357Z 00000KT 01/01 A3014 RMK A01 T00100007  RH  098%=      5-min Rain = 0
KLA1 161358Z 00000KT 01/01 A3014 RMK A01 T00120008  RH  098%=      5-min Rain = 0
KLA1 161359Z 00000KT 01/01 A3014 RMK A01 T00130010  RH  098%=      5-min Rain = 0
KLA1 161400Z 00000KT 01/01 A3015 RMK A01 T00140011  RH  098%=      5-min Rain = 0
KLA1 161401Z 00000KT 02/01 A3015 RMK A01 T00160012  RH  098%=      5-min Rain = 0
KLA1 161402Z 14000KT 02/01 A3015 RMK A01 T00170013  RH  098%=      5-min Rain = 0
KLA1 161403Z 13001KT 02/01 A3015 RMK A01 T00170014  RH  098%=      5-min Rain = 0
KLA1 161404Z 11001KT 02/01 A3014 RMK A01 T00180014  RH  097%=      5-min Rain = 0
KLA1 161405Z 12001KT 02/01 A3014 RMK A01 T00180014  RH  097%=      5-min Rain = 0
KLA1 161406Z 12000KT 02/02 A3014 RMK A01 T00200016  RH  097%=      5-min Rain = 0
KLA1 161407Z 10000KT 02/02 A3014 RMK A01 T00210017  RH  097%=      5-min Rain = 0
KLA1 161408Z 09000KT 02/02 A3014 RMK A01 T00220017  RH  097%=      5-min Rain = 0
KLA1 161409Z 00000KT 02/02 A3014 RMK A01 T00240019  RH  097%=      5-min Rain = 0
KLA1 161410Z 00000KT 03/02 A3014 RMK A01 T00260021  RH  097%=      5-min Rain = 0
KLA1 161411Z 00000KT 03/02 A3014 RMK A01 T00290024  RH  096%=      5-min Rain = 0
KLA1 161412Z 00000KT 03/03 A3014 RMK A01 T00310025  RH  096%=      5-min Rain = 0
KLA1 161413Z 00000KT 03/02 A3014 RMK A01 T00300022  RH  095%=      5-min Rain = 0
KLA1 161414Z 00000KT 03/02 A3014 RMK A01 T00290020  RH  094%=      5-min Rain = 0
KLA1 161415Z 00000KT 03/02 A3014 RMK A01 T00300019  RH  093%=      5-min Rain = 0
KLA1 161416Z 00000KT 03/02 A3014 RMK A01 T00300018  RH  092%=      5-min Rain = 0
KLA1 161417Z 00000KT 03/02 A3014 RMK A01 T00310019  RH  092%=      5-min Rain = 0
KLA1 161418Z 00000KT 03/02 A3014 RMK A01 T00320019  RH  091%=      5-min Rain = 0
KLA1 161419Z 00000KT 03/02 A3014 RMK A01 T00340020  RH  090%=      5-min Rain = 0
KLA1 161420Z 00000KT 04/02 A3014 RMK A01 T00360020  RH  089%=      5-min Rain = 0
KLA1 161421Z 00000KT 04/02 A3014 RMK A01 T00370019  RH  088%=      5-min Rain = 0
KLA1 161422Z 00000KT 04/02 A3014 RMK A01 T00370019  RH  088%=      5-min Rain = 0
KLA1 161423Z 00000KT 04/02 A3014 RMK A01 T00380018  RH  087%=      5-min Rain = 0
KLA1 161424Z 17001KT 04/02 A3014 RMK A01 T00380017  RH  086%=      5-min Rain = 0
KLA1 161425Z 16001KT 04/02 A3014 RMK A01 T00370016  RH  086%=      5-min Rain = 0
KLA1 161426Z 16001KT 04/02 A3014 RMK A01 T00360016  RH  087%=      5-min Rain = 0
KLA1 161427Z 18001KT 04/02 A3014 RMK A01 T00350016  RH  087%=      5-min Rain = 0
KLA1 161428Z 17001KT 03/02 A3014 RMK A01 T00340015  RH  088%=      5-min Rain = 0
KLA1 161429Z 17001KT 03/02 A3015 RMK A01 T00330015  RH  088%=      5-min Rain = 0
KLA1 161430Z 16000KT 03/02 A3015 RMK A01 T00330016  RH  089%=      5-min Rain = 0
KLA1 161431Z 16001KT 03/02 A3015 RMK A01 T00330017  RH  089%=      5-min Rain = 0
KLA1 161432Z 18000KT 03/02 A3015 RMK A01 T00330017  RH  090%=      5-min Rain = 0
KLA1 161433Z 17001KT 03/02 A3015 RMK A01 T00330017  RH  089%=      5-min Rain = 0
KLA1 161434Z 20000KT 03/02 A3015 RMK A01 T00330018  RH  090%=      5-min Rain = 0
KLA1 161435Z 19000KT 04/02 A3014 RMK A01 T00350020  RH  090%=      5-min Rain = 0
KLA1 161436Z 19001KT 04/02 A3015 RMK A01 T00360019  RH  089%=      5-min Rain = 0
KLA1 161437Z 20000KT 04/02 A3015 RMK A01 T00350017  RH  088%=      5-min Rain = 0
KLA1 161438Z 16000KT 04/02 A3015 RMK A01 T00350017  RH  088%=      5-min Rain = 0
KLA1 161439Z 17001KT 04/02 A3015 RMK A01 T00350017  RH  088%=      5-min Rain = 0
KLA1 161440Z 16000KT 04/02 A3015 RMK A01 T00350017  RH  088%=      5-min Rain = 0
KLA1 161441Z 16001KT 04/02 A3015 RMK A01 T00350015  RH  087%=      5-min Rain = 0
KLA1 161442Z 00000KT 04/02 A3014 RMK A01 T00360016  RH  087%=      5-min Rain = 0
KLA1 161443Z 00000KT 04/02 A3014 RMK A01 T00370016  RH  086%=      5-min Rain = 0
KLA1 161444Z 00000KT 04/02 A3015 RMK A01 T00370015  RH  086%=      5-min Rain = 0
KLA1 161445Z 00000KT 04/02 A3015 RMK A01 T00370015  RH  085%=      5-min Rain = 0
KLA1 161446Z 00000KT 04/02 A3015 RMK A01 T00380016  RH  086%=      5-min Rain = 0
KLA1 161447Z 00000KT 04/02 A3015 RMK A01 T00390017  RH  086%=      5-min Rain = 0
KLA1 161448Z 00000KT 04/02 A3015 RMK A01 T00410020  RH  086%=      5-min Rain = 0
KLA1 161449Z 17001KT 04/02 A3015 RMK A01 T00430022  RH  086%=      5-min Rain = 0
KLA1 161450Z 18000KT 04/02 A3015 RMK A01 T00440022  RH  086%=      5-min Rain = 0
KLA1 161451Z 18000KT 05/02 A3015 RMK A01 T00450023  RH  085%=      5-min Rain = 0
KLA1 161452Z 18000KT 05/02 A3015 RMK A01 T00460023  RH  085%=      5-min Rain = 0
KLA1 161453Z 17000KT 05/02 A3015 RMK A01 T00480024  RH  084%=      5-min Rain = 0
KLA1 161454Z 00000KT 05/02 A3015 RMK A01 T00480023  RH  084%=      5-min Rain = 0
KLA1 161455Z 00000KT 05/02 A3015 RMK A01 T00490024  RH  084%=      5-min Rain = 0
KLA1 161456Z 00000KT 05/02 A3014 RMK A01 T00500024  RH  083%=      5-min Rain = 0
KLA1 161457Z 00000KT 05/02 A3014 RMK A01 T00520024  RH  082%=      5-min Rain = 0
KLA1 161458Z 00000KT 05/02 A3014 RMK A01 T00520024  RH  082%=      5-min Rain = 0
KLA1 161459Z 00000KT 05/03 A3014 RMK A01 T00530025  RH  083%=      5-min Rain = 0
KLA1 161500Z 00000KT 05/03 A3014 RMK A01 T00540026  RH  083%=      5-min Rain = 0
KLA1 161501Z 00000KT 05/03 A3014 RMK A01 T00540025  RH  082%=      5-min Rain = 0
KLA1 161502Z 21000KT 05/03 A3014 RMK A01 T00540026  RH  082%=      5-min Rain = 0
KLA1 161503Z 17001KT 06/03 A3014 RMK A01 T00550026  RH  082%=      5-min Rain = 0
KLA1 161504Z 16000KT 06/03 A3014 RMK A01 T00560027  RH  082%=      5-min Rain = 0
KLA1 161505Z 16001KT 06/03 A3014 RMK A01 T00560027  RH  082%=      5-min Rain = 0
KLA1 161506Z 14000KT 06/03 A3014 RMK A01 T00580028  RH  081%=      5-min Rain = 0
KLA1 161507Z 00000KT 06/03 A3014 RMK A01 T00600029  RH  081%=      5-min Rain = 0
KLA1 161508Z 18000KT 06/03 A3014 RMK A01 T00640032  RH  080%=      5-min Rain = 0
KLA1 161509Z 23000KT 07/03 A3014 RMK A01 T00670034  RH  079%=      5-min Rain = 0
KLA1 161510Z 20000KT 07/03 A3014 RMK A01 T00680032  RH  078%=      5-min Rain = 0
KLA1 161511Z 22000KT 07/03 A3014 RMK A01 T00670031  RH  078%=      5-min Rain = 0
KLA1 161512Z 00000KT 07/03 A3014 RMK A01 T00660031  RH  078%=      5-min Rain = 0
KLA1 161513Z 00000KT 07/04 A3014 RMK A01 T00670035  RH  080%=      5-min Rain = 0
KLA1 161514Z 00000KT 07/04 A3014 RMK A01 T00700036  RH  079%=      5-min Rain = 0
KLA1 161515Z 13000KT 07/03 A3014 RMK A01 T00710033  RH  077%=      5-min Rain = 0
KLA1 161516Z 00000KT 07/03 A3014 RMK A01 T00730033  RH  076%=      5-min Rain = 0
KLA1 161517Z 00000KT 08/03 A3014 RMK A01 T00750033  RH  075%=      5-min Rain = 0
KLA1 161518Z 23000KT 08/03 A3014 RMK A01 T00760033  RH  074%=      5-min Rain = 0
KLA1 161519Z 23001KT 08/04 A3014 RMK A01 T00790036  RH  074%=      5-min Rain = 0
KLA1 161520Z 18002KT 08/04 A3014 RMK A01 T00810036  RH  074%=      5-min Rain = 0
KLA1 161521Z 19000KT 08/04 A3014 RMK A01 T00810039  RH  075%=      5-min Rain = 0
KLA1 161522Z 19001KT 08/04 A3014 RMK A01 T00820038  RH  074%=      5-min Rain = 0
KLA1 161523Z 17001KT 08/04 A3014 RMK A01 T00820035  RH  072%=      5-min Rain = 0
KLA1 161524Z 16001KT 08/03 A3014 RMK A01 T00810033  RH  072%=      5-min Rain = 0
KLA1 161525Z 13000KT 08/03 A3014 RMK A01 T00810034  RH  072%=      5-min Rain = 0
KLA1 161526Z 00000KT 08/04 A3014 RMK A01 T00820035  RH  072%=      5-min Rain = 0
KLA1 161527Z 16001KT 09/04 A3014 RMK A01 T00850038  RH  072%=      5-min Rain = 0
KLA1 161528Z 12002KT 09/04 A3014 RMK A01 T00870038  RH  071%=      5-min Rain = 0
KLA1 161529Z 13001KT 09/03 A3014 RMK A01 T00880034  RH  069%=      5-min Rain = 0
KLA1 161530Z 15003KT 09/03 A3014 RMK A01 T00900034  RH  068%=      5-min Rain = 0
KLA1 161531Z 15002KT 09/03 A3014 RMK A01 T00900033  RH  067%=      5-min Rain = 0
KLA1 161532Z 14003KT 09/03 A3014 RMK A01 T00910033  RH  067%=      5-min Rain = 0
KLA1 161533Z 13002KT 09/03 A3014 RMK A01 T00920030  RH  065%=      5-min Rain = 0
KLA1 161534Z 13003KT 09/03 A3014 RMK A01 T00930033  RH  066%=      5-min Rain = 0
KLA1 161535Z 11003KT 09/03 A3014 RMK A01 T00940029  RH  064%=      5-min Rain = 0
KLA1 161536Z 14004KT 10/03 A3014 RMK A01 T00950025  RH  062%=      5-min Rain = 0
KLA1 161537Z 13003KT 10/02 A3014 RMK A01 T00960022  RH  060%=      5-min Rain = 0
KLA1 161538Z 13005KT 10/02 A3014 RMK A01 T00970023  RH  060%=      5-min Rain = 0
KLA1 161539Z 12004KT 10/02 A3014 RMK A01 T00980016  RH  057%=      5-min Rain = 0
KLA1 161540Z 11004KT 10/02 A3014 RMK A01 T00990015  RH  056%=      5-min Rain = 0
KLA1 161541Z 12003KT 10/01 A3014 RMK A01 T00990014  RH  055%=      5-min Rain = 0
KLA1 161542Z 13004KT 10/02 A3014 RMK A01 T01000016  RH  056%=      5-min Rain = 0
KLA1 161543Z 12004KT 10/01 A3014 RMK A01 T01010013  RH  054%=      5-min Rain = 0
KLA1 161544Z 13005KT 10/02 A3014 RMK A01 T01020017  RH  056%=      5-min Rain = 0
KLA1 161545Z 12004KT 10/02 A3014 RMK A01 T01040019  RH  055%=      5-min Rain = 0
KLA1 161546Z 12007KT 11/02 A3014 RMK A01 T01050016  RH  054%=      5-min Rain = 0
KLA1 161547Z 12005KT 10/01 A3014 RMK A01 T01040012  RH  053%=      5-min Rain = 0
KLA1 161548Z 13006KT 10/02 A3014 RMK A01 T01040015  RH  054%=      5-min Rain = 0
KLA1 161549Z 12006KT 10/01 A3014 RMK A01 T01040012  RH  053%=      5-min Rain = 0
KLA1 161550Z 12005KT 10/01 A3014 RMK A01 T01040013  RH  053%=      5-min Rain = 0
KLA1 161551Z 11007KT 11/02 A3014 RMK A01 T01050016  RH  054%=      5-min Rain = 0
KLA1 161552Z 14005KT 11/01 A3014 RMK A01 T01050014  RH  054%=      5-min Rain = 0
KLA1 161553Z 13005KT 11/02 A3014 RMK A01 T01050015  RH  054%=      5-min Rain = 0
KLA1 161554Z 13004KT 11/01 A3014 RMK A01 T01050013  RH  053%=      5-min Rain = 0
KLA1 161555Z 13005KT 11/01 A3014 RMK A01 T01050013  RH  053%=      5-min Rain = 0
KLA1 161556Z 12005KT 11/01 A3014 RMK A01 T01050013  RH  053%=      5-min Rain = 0
KLA1 161557Z 13006KT 11/02 A3014 RMK A01 T01060015  RH  053%=      5-min Rain = 0
KLA1 161558Z 13007KT 11/02 A3014 RMK A01 T01070015  RH  053%=      5-min Rain = 0
KLA1 161559Z 14006KT 11/01 A3014 RMK A01 T01070014  RH  052%=      5-min Rain = 0
KLA1 161600Z 13005KT 11/02 A3014 RMK A01 T01070017  RH  054%=      5-min Rain = 0
KLA1 161601Z 12007KT 11/01 A3014 RMK A01 T01080014  RH  052%=      5-min Rain = 0
KLA1 161602Z 11006KT 11/01 A3014 RMK A01 T01090013  RH  052%=      5-min Rain = 0
KLA1 161603Z 12004KT 11/02 A3014 RMK A01 T01080015  RH  053%=      5-min Rain = 0
KLA1 161604Z 12005KT 11/02 A3014 RMK A01 T01100015  RH  052%=      5-min Rain = 0
KLA1 161605Z 12007KT 11/01 A3014 RMK A01 T01100014  RH  052%=      5-min Rain = 0
KLA1 161606Z 12004KT 11/02 A3014 RMK A01 T01090016  RH  053%=      5-min Rain = 0
KLA1 161607Z 12006KT 11/02 A3014 RMK A01 T01110017  RH  052%=      5-min Rain = 0
KLA1 161608Z 12006KT 11/02 A3014 RMK A01 T01110015  RH  052%=      5-min Rain = 0
KLA1 161609Z 12008KT 11/01 A3014 RMK A01 T01110014  RH  051%=      5-min Rain = 0
KLA1 161610Z 12005KT 11/02 A3014 RMK A01 T01110016  RH  052%=      5-min Rain = 0
KLA1 161611Z 12004KT 11/02 A3014 RMK A01 T01110015  RH  051%=      5-min Rain = 0
KLA1 161612Z 13004KT 11/01 A3013 RMK A01 T01120014  RH  051%=      5-min Rain = 0
KLA1 161613Z 12006KT 11/01 A3013 RMK A01 T01120014  RH  051%=      5-min Rain = 0
KLA1 161614Z 14006KT 11/02 A3013 RMK A01 T01140019  RH  052%=      5-min Rain = 0
KLA1 161615Z 13005KT 11/01 A3013 RMK A01 T01140013  RH  050%=      5-min Rain = 0
KLA1 161616Z 13006KT 11/02 A3013 RMK A01 T01140018  RH  052%=      5-min Rain = 0
KLA1 161617Z 12006KT 12/02 A3013 RMK A01 T01160020  RH  052%=      5-min Rain = 0
KLA1 161618Z 12006KT 12/02 A3013 RMK A01 T01160018  RH  051%=      5-min Rain = 0
KLA1 161619Z 13005KT 12/02 A3013 RMK A01 T01160018  RH  051%=      5-min Rain = 0
KLA1 161620Z 13005KT 12/02 A3013 RMK A01 T01170020  RH  052%=      5-min Rain = 0
KLA1 161621Z 13007KT 12/02 A3013 RMK A01 T01180019  RH  050%=      5-min Rain = 0
KLA1 161622Z 15004KT 12/02 A3013 RMK A01 T01180016  RH  049%=      5-min Rain = 0
KLA1 161623Z 14004KT 12/02 A3013 RMK A01 T01180019  RH  050%=      5-min Rain = 0
KLA1 161624Z 12005KT 12/02 A3013 RMK A01 T01200017  RH  049%=      5-min Rain = 0
KLA1 161625Z 14004KT 12/02 A3013 RMK A01 T01200015  RH  049%=      5-min Rain = 0
KLA1 161626Z 14004KT 12/02 A3013 RMK A01 T01200017  RH  049%=      5-min Rain = 0
KLA1 161627Z 13004KT 12/02 A3013 RMK A01 T01200017  RH  049%=      5-min Rain = 0
KLA1 161628Z 13004KT 12/01 A3013 RMK A01 T01210014  RH  048%=      5-min Rain = 0
KLA1 161629Z 12005KT 12/02 A3013 RMK A01 T01210017  RH  049%=      5-min Rain = 0
KLA1 161630Z 13006KT 12/01 A3013 RMK A01 T01230014  RH  047%=      5-min Rain = 0
KLA1 161631Z 14005KT 12/01 A3013 RMK A01 T01240013  RH  047%=      5-min Rain = 0
KLA1 161632Z 17006KT 13/01 A3013 RMK A01 T01260013  RH  046%=      5-min Rain = 0
KLA1 161633Z 16006KT 13/01 A3013 RMK A01 T01270011  RH  045%=      5-min Rain = 0
KLA1 161634Z 16007KT 13/01 A3013 RMK A01 T01280008  RH  044%=      5-min Rain = 0
KLA1 161635Z 13005KT 13/01 A3013 RMK A01 T01270006  RH  043%=      5-min Rain = 0
KLA1 161636Z 14008KT 13/01 A3012 RMK A01 T01270010  RH  045%=      5-min Rain = 0
KLA1 161637Z 19006KT 13/01 A3012 RMK A01 T01280012  RH  045%=      5-min Rain = 0
KLA1 161638Z 21004KT 13/01 A3012 RMK A01 T01310011  RH  044%=      5-min Rain = 0
KLA1 161639Z 19003KT 13/01 A3012 RMK A01 T01310005  RH  042%=      5-min Rain = 0
KLA1 161640Z 17002KT 13/01 A3012 RMK A01 T01310005  RH  042%=      5-min Rain = 0
KLA1 161641Z 22003KT 13/01 A3012 RMK A01 T01320006  RH  042%=      5-min Rain = 0
KLA1 161642Z 16005KT 13/01 A3012 RMK A01 T01340009  RH  042%=      5-min Rain = 0
KLA1 161643Z 17003KT 14/01 A3012 RMK A01 T01350012  RH  043%=      5-min Rain = 0
KLA1 161644Z 18005KT 14/01 A3012 RMK A01 T01370012  RH  043%=      5-min Rain = 0
KLA1 161645Z 18005KT 14/01 A3012 RMK A01 T01370010  RH  042%=      5-min Rain = 0
KLA1 161646Z 18004KT 14/01 A3012 RMK A01 T01350009  RH  042%=      5-min Rain = 0
KLA1 161647Z 20003KT 13/01 A3012 RMK A01 T01340005  RH  041%=      5-min Rain = 0
KLA1 161648Z 22004KT 13/01 A3012 RMK A01 T01320006  RH  042%=      5-min Rain = 0
KLA1 161649Z 21006KT 13/01 A3012 RMK A01 T01330005  RH  042%=      5-min Rain = 0
KLA1 161650Z 20006KT 13/00 A3012 RMK A01 T01330003  RH  041%=      5-min Rain = 0
KLA1 161651Z 17006KT 13/01 A3012 RMK A01 T01340009  RH  043%=      5-min Rain = 0
KLA1 161652Z 17004KT 14/01 A3012 RMK A01 T01360013  RH  043%=      5-min Rain = 0
KLA1 161653Z 18003KT 14/01 A3012 RMK A01 T01370010  RH  042%=      5-min Rain = 0
KLA1 161654Z 22004KT 14/01 A3012 RMK A01 T01380006  RH  041%=      5-min Rain = 0
KLA1 161655Z 22004KT 14/01 A3011 RMK A01 T01380009  RH  041%=      5-min Rain = 0
KLA1 161656Z 21007KT 14/01 A3011 RMK A01 T01400008  RH  041%=      5-min Rain = 0
KLA1 161657Z 20004KT 14/00 A3011 RMK A01 T01380002  RH  039%=      5-min Rain = 0
KLA1 161658Z 21003KT 14/00 A3011 RMK A01 T01370004  RH  040%=      5-min Rain = 0
KLA1 161659Z 21005KT 14/00 A3011 RMK A01 T01370004  RH  040%=      5-min Rain = 0
KLA1 161700Z 19007KT 14/01 A3011 RMK A01 T01370006  RH  041%=      5-min Rain = 0
KLA1 161701Z 20004KT 14/01 A3011 RMK A01 T01370007  RH  041%=      5-min Rain = 0
KLA1 161702Z 21004KT 14/01 A3011 RMK A01 T01380008  RH  041%=      5-min Rain = 0
KLA1 161703Z 19004KT 14/01 A3011 RMK A01 T01400010  RH  041%=      5-min Rain = 0
KLA1 161704Z 18003KT 14/00 A3011 RMK A01 T01400002  RH  039%=      5-min Rain = 0
KLA1 161705Z 19005KT 14/01 A3011 RMK A01 T01400007  RH  040%=      5-min Rain = 0
KLA1 161706Z 18003KT 14/01 A3011 RMK A01 T01410008  RH  040%=      5-min Rain = 0
KLA1 161707Z 20005KT 14/01 A3011 RMK A01 T01420007  RH  040%=      5-min Rain = 0
KLA1 161708Z 20004KT 14/01 A3011 RMK A01 T01420006  RH  039%=      5-min Rain = 0
KLA1 161709Z 19008KT 14/01 A3011 RMK A01 T01410007  RH  040%=      5-min Rain = 0
KLA1 161710Z 18007KT 14/01 A301 RMK A01 T01420010  RH  040%=      5-min Rain = 0
KLA1 161711Z 19004KT 14/00 A301 RMK A01 T01420003  RH  039%=      5-min Rain = 0
KLA1 161712Z 18005KT 14/01 A301 RMK A01 T01420010  RH  040%=      5-min Rain = 0
KLA1 161713Z 18004KT 14/01 A301 RMK A01 T01440011  RH  040%=      5-min Rain = 0
KLA1 161714Z 19004KT 15/01 A301 RMK A01 T01450007  RH  039%=      5-min Rain = 0
KLA1 161715Z 17007KT 15/01 A301 RMK A01 T01450013  RH  041%=      5-min Rain = 0
KLA1 161716Z 19007KT 15/01 A301 RMK A01 T01470013  RH  040%=      5-min Rain = 0
KLA1 161717Z 18007KT 15/01 A301 RMK A01 T01480007  RH  038%=      5-min Rain = 0
KLA1 161718Z 17006KT 15/01 A301 RMK A01 T01450005  RH  038%=      5-min Rain = 0
KLA1 161719Z 18003KT 14/01 A301 RMK A01 T01440005  RH  039%=      5-min Rain = 0
KLA1 161720Z 16004KT 14/01 A301 RMK A01 T01430005  RH  039%=      5-min Rain = 0
KLA1 161721Z 15006KT 14/01 A301 RMK A01 T01430009  RH  040%=      5-min Rain = 0
KLA1 161722Z 18006KT 15/01 A301 RMK A01 T01460009  RH  039%=      5-min Rain = 0
KLA1 161723Z 17003KT 15/01 A301 RMK A01 T01460008  RH  039%=      5-min Rain = 0
KLA1 161724Z 15007KT 15/01 A301 RMK A01 T01470009  RH  039%=      5-min Rain = 0
KLA1 161725Z 15007KT 15/01 A301 RMK A01 T01470006  RH  038%=      5-min Rain = 0
KLA1 161726Z 16008KT 15/01 A301 RMK A01 T01470008  RH  039%=      5-min Rain = 0
KLA1 161727Z 15008KT 15/01 A301 RMK A01 T01480008  RH  039%=      5-min Rain = 0
KLA1 161728Z 18008KT 15/01 A301 RMK A01 T01480009  RH  039%=      5-min Rain = 0
KLA1 161729Z 19008KT 15/01 A3009 RMK A01 T01490008  RH  038%=      5-min Rain = 0
KLA1 161730Z 19008KT 15/01 A3009 RMK A01 T01480008  RH  038%=      5-min Rain = 0
KLA1 161731Z 19009KT 15/01 A3009 RMK A01 T01480008  RH  038%=      5-min Rain = 0
KLA1 161732Z 19008KT 15/01 A3009 RMK A01 T01480007  RH  038%=      5-min Rain = 0
KLA1 161733Z 19007KT 15/01 A3009 RMK A01 T01480008  RH  038%=      5-min Rain = 0
KLA1 161734Z 21006KT 15/01 A3009 RMK A01 T01480005  RH  038%=      5-min Rain = 0
KLA1 161735Z 22008KT 15/01 A3009 RMK A01 T01480011  RH  039%=      5-min Rain = 0
KLA1 161736Z 22006KT 15/01 A3009 RMK A01 T01500009  RH  038%=      5-min Rain = 0
KLA1 161737Z 22005KT 15/01 A3009 RMK A01 T01520010  RH  038%=      5-min Rain = 0
KLA1 161738Z 18008KT 15/01 A3009 RMK A01 T01530011  RH  038%=      5-min Rain = 0
KLA1 161739Z 16007KT 15/01 A3009 RMK A01 T01530011  RH  038%=      5-min Rain = 0
KLA1 161740Z 18010KT 15/01 A3009 RMK A01 T01530009  RH  037%=      5-min Rain = 0
KLA1 161741Z 21007KT 15/01 A3009 RMK A01 T01530008  RH  037%=      5-min Rain = 0
KLA1 161742Z 21003KT 15/01 A3009 RMK A01 T01520007  RH  037%=      5-min Rain = 0
KLA1 161743Z 17004KT 15/01 A3009 RMK A01 T01520009  RH  038%=      5-min Rain = 0
KLA1 161744Z 18005KT 15/01 A3009 RMK A01 T01530010  RH  038%=      5-min Rain = 0
KLA1 161745Z 20007KT 15/01 A3009 RMK A01 T01530010  RH  038%=      5-min Rain = 0
KLA1 161746Z 17007KT 15/01 A3008 RMK A01 T01520011  RH  038%=      5-min Rain = 0
KLA1 161747Z 18006KT 15/00 A3008 RMK A01 T01490004  RH  037%=      5-min Rain = 0
KLA1 161748Z 21003KT 15/01 A3008 RMK A01 T01470010  RH  039%=      5-min Rain = 0
KLA1 161749Z 18003KT 15/01 A3008 RMK A01 T01470009  RH  039%=      5-min Rain = 0
KLA1 161750Z 19005KT 15/01 A3008 RMK A01 T01470010  RH  039%=      5-min Rain = 0
KLA1 161751Z 17007KT 15/01 A3008 RMK A01 T01470008  RH  039%=      5-min Rain = 0
KLA1 161752Z 17008KT 15/01 A3008 RMK A01 T01470009  RH  039%=      5-min Rain = 0
KLA1 161753Z 16006KT 15/01 A3008 RMK A01 T01460009  RH  039%=      5-min Rain = 0
KLA1 161754Z 16006KT 15/01 A3008 RMK A01 T01450011  RH  040%=      5-min Rain = 0
KLA1 161755Z 16006KT 15/01 A3008 RMK A01 T01460011  RH  040%=      5-min Rain = 0
KLA1 161756Z 16007KT 15/01 A3008 RMK A01 T01460011  RH  040%=      5-min Rain = 0
KLA1 161757Z 17007KT 15/01 A3008 RMK A01 T01450009  RH  039%=      5-min Rain = 0
KLA1 161758Z 16007KT 15/01 A3008 RMK A01 T01450010  RH  040%=      5-min Rain = 0
KLA1 161759Z 15007KT 15/01 A3008 RMK A01 T01450012  RH  040%=      5-min Rain = 0
KLA1 161800Z 15008KT 15/01 A3008 RMK A01 T01450011  RH  040%=      5-min Rain = 0
KLA1 161801Z 15006KT 15/01 A3007 RMK A01 T01450011  RH  040%=      5-min Rain = 0
KLA1 161802Z 15005KT 15/01 A3007 RMK A01 T01460013  RH  040%=      5-min Rain = 0
KLA1 161803Z 15007KT 15/01 A3007 RMK A01 T01460011  RH  040%=      5-min Rain = 0
KLA1 161804Z 15008KT 15/01 A3007 RMK A01 T01460008  RH  039%=      5-min Rain = 0
KLA1 161805Z 14007KT 15/01 A3007 RMK A01 T01450008  RH  039%=      5-min Rain = 0
KLA1 161806Z 15007KT 15/01 A3007 RMK A01 T01450011  RH  040%=      5-min Rain = 0
KLA1 161807Z 16007KT 15/01 A3007 RMK A01 T01460014  RH  041%=      5-min Rain = 0
KLA1 161808Z 17006KT 15/02 A3007 RMK A01 T01480016  RH  041%=      5-min Rain = 0
KLA1 161809Z 16007KT 15/02 A3007 RMK A01 T01510016  RH  040%=      5-min Rain = 0
KLA1 161810Z 17007KT 15/02 A3007 RMK A01 T01520016  RH  040%=      5-min Rain = 0
KLA1 161811Z 17008KT 15/02 A3007 RMK A01 T01540017  RH  039%=      5-min Rain = 0
KLA1 161812Z 19008KT 16/01 A3007 RMK A01 T01550014  RH  039%=      5-min Rain = 0
KLA1 161813Z 18008KT 16/02 A3007 RMK A01 T01550015  RH  039%=      5-min Rain = 0
KLA1 161814Z 18007KT 16/01 A3007 RMK A01 T01560012  RH  038%=      5-min Rain = 0
KLA1 161815Z 17009KT 16/02 A3007 RMK A01 T01580015  RH  038%=      5-min Rain = 0
KLA1 161816Z 16008KT 16/01 A3007 RMK A01 T01580013  RH  037%=      5-min Rain = 0
KLA1 161817Z 17008KT 16/01 A3007 RMK A01 T01570012  RH  037%=      5-min Rain = 0
KLA1 161818Z 18009KT 16/02 A3007 RMK A01 T01570016  RH  038%=      5-min Rain = 0
KLA1 161819Z 17007KT 16/01 A3007 RMK A01 T01570013  RH  038%=      5-min Rain = 0
KLA1 161820Z 17007KT 16/01 A3007 RMK A01 T01560011  RH  037%=      5-min Rain = 0
KLA1 161821Z 16009KT 16/01 A3007 RMK A01 T01560012  RH  038%=      5-min Rain = 0
KLA1 161822Z 17008KT 16/01 A3007 RMK A01 T01560012  RH  038%=      5-min Rain = 0
KLA1 161823Z 16009KT 16/02 A3007 RMK A01 T01570015  RH  038%=      5-min Rain = 0
KLA1 161824Z 17006KT 16/02 A3007 RMK A01 T01590015  RH  038%=      5-min Rain = 0
KLA1 161825Z 16006KT 16/01 A3007 RMK A01 T01590012  RH  037%=      5-min Rain = 0
KLA1 161826Z 17005KT 16/02 A3007 RMK A01 T01590018  RH  039%=      5-min Rain = 0
KLA1 161827Z 19006KT 16/02 A3006 RMK A01 T01620022  RH  039%=      5-min Rain = 0
KLA1 161828Z 20007KT 16/01 A3006 RMK A01 T01630010  RH  036%=      5-min Rain = 0
KLA1 161829Z 20009KT 16/01 A3006 RMK A01 T01610013  RH  037%=      5-min Rain = 0
KLA1 161830Z 21007KT 16/01 A3006 RMK A01 T01610008  RH  036%=      5-min Rain = 0
KLA1 161831Z 20008KT 16/01 A3006 RMK A01 T01590011  RH  037%=      5-min Rain = 0
KLA1 161832Z 20006KT 16/01 A3006 RMK A01 T01580009  RH  037%=      5-min Rain = 0
KLA1 161833Z 21009KT 16/01 A3006 RMK A01 T01570012  RH  038%=      5-min Rain = 0
KLA1 161834Z 21006KT 16/01 A3006 RMK A01 T01560011  RH  037%=      5-min Rain = 0
KLA1 161835Z 22005KT 16/01 A3006 RMK A01 T01550010  RH  037%=      5-min Rain = 0
KLA1 161836Z 20008KT 15/01 A3006 RMK A01 T01540010  RH  037%=      5-min Rain = 0
KLA1 161837Z 20009KT 15/01 A3006 RMK A01 T01530013  RH  038%=      5-min Rain = 0
KLA1 161838Z 19010KT 15/01 A3006 RMK A01 T01540011  RH  038%=      5-min Rain = 0
KLA1 161839Z 18009KT 15/01 A3006 RMK A01 T01540007  RH  037%=      5-min Rain = 0
KLA1 161840Z 18008KT 15/01 A3006 RMK A01 T01540008  RH  037%=      5-min Rain = 0
KLA1 161841Z 19009KT 16/01 A3006 RMK A01 T01550007  RH  037%=      5-min Rain = 0
KLA1 161842Z 20009KT 16/01 A3006 RMK A01 T01550006  RH  036%=      5-min Rain = 0
KLA1 161843Z 20009KT 16/01 A3006 RMK A01 T01550005  RH  036%=      5-min Rain = 0
KLA1 161844Z 20006KT 15/01 A3006 RMK A01 T01540006  RH  037%=      5-min Rain = 0
KLA1 161845Z 20005KT 15/01 A3006 RMK A01 T01540009  RH  037%=      5-min Rain = 0
KLA1 161846Z 18007KT 16/01 A3006 RMK A01 T01560012  RH  038%=      5-min Rain = 0
KLA1 161847Z 17007KT 16/01 A3006 RMK A01 T01590014  RH  038%=      5-min Rain = 0
KLA1 161848Z 15008KT 16/01 A3005 RMK A01 T01620014  RH  037%=      5-min Rain = 0
KLA1 161849Z 15008KT 16/01 A3005 RMK A01 T01630011  RH  036%=      5-min Rain = 0
KLA1 161850Z 15007KT 16/01 A3005 RMK A01 T01630012  RH  036%=      5-min Rain = 0
KLA1 161851Z 15007KT 16/01 A3005 RMK A01 T01630013  RH  036%=      5-min Rain = 0
KLA1 161852Z 15007KT 16/01 A3005 RMK A01 T01640011  RH  036%=      5-min Rain = 0
KLA1 161853Z 16007KT 17/01 A3005 RMK A01 T01650013  RH  036%=      5-min Rain = 0
KLA1 161854Z 14008KT 17/01 A3005 RMK A01 T01650009  RH  035%=      5-min Rain = 0
KLA1 161855Z 14006KT 16/01 A3005 RMK A01 T01640014  RH  036%=      5-min Rain = 0
KLA1 161856Z 16007KT 17/02 A3005 RMK A01 T01650015  RH  036%=      5-min Rain = 0
KLA1 161857Z 17010KT 17/01 A3004 RMK A01 T01670011  RH  035%=      5-min Rain = 0
KLA1 161858Z 18008KT 17/01 A3004 RMK A01 T01670012  RH  035%=      5-min Rain = 0
KLA1 161859Z 17010KT 17/01 A3004 RMK A01 T01680011  RH  035%=      5-min Rain = 0
KLA1 161900Z 17007KT 17/01 A3004 RMK A01 T01680007  RH  034%=      5-min Rain = 0
KLA1 161901Z 17005KT 17/01 A3004 RMK A01 T01660005  RH  033%=      5-min Rain = 0
KLA1 161902Z 18005KT 17/00 A3004 RMK A01 T01650001  RH  033%=      5-min Rain = 0
KLA1 161903Z 18007KT 16/01 A3004 RMK A01 T01630007  RH  035%=      5-min Rain = 0
KLA1 161904Z 16009KT 17/01 A3004 RMK A01 T01650011  RH  035%=      5-min Rain = 0
KLA1 161905Z 16005KT 17/01 A3004 RMK A01 T01680013  RH  035%=      5-min Rain = 0
KLA1 161906Z 16008KT 17/01 A3004 RMK A01 T01700010  RH  034%=      5-min Rain = 0
KLA1 161907Z 16010KT 17/01 A3004 RMK A01 T01710009  RH  033%=      5-min Rain = 0
KLA1 161908Z 17010KT 17/01 A3004 RMK A01 T01720010  RH  033%=      5-min Rain = 0
KLA1 161909Z 18012KT 17/01 A3004 RMK A01 T01720010  RH  034%=      5-min Rain = 0
KLA1 161910Z 18010KT 17/01 A3004 RMK A01 T01690009  RH  034%=      5-min Rain = 0
KLA1 161911Z 17012KT 17/01 A3004 RMK A01 T01680007  RH  033%=      5-min Rain = 0
KLA1 161912Z 17011KT 17/01 A3004 RMK A01 T01680006  RH  033%=      5-min Rain = 0
KLA1 161913Z 17008KT 17/00 A3004 RMK A01 T01680003  RH  033%=      5-min Rain = 0
KLA1 161914Z 18007KT 17/M00 A3004 RMK A01 T01671001  RH  032%=      5-min Rain = 0
KLA1 161915Z 19006KT 17/M00 A3003 RMK A01 T01661003  RH  032%=      5-min Rain = 0
KLA1 161916Z 15007KT 16/00 A3003 RMK A01 T01640001  RH  033%=      5-min Rain = 0
KLA1 161917Z 16006KT 17/01 A3003 RMK A01 T01680008  RH  034%=      5-min Rain = 0
KLA1 161918Z 17008KT 17/01 A3003 RMK A01 T01720007  RH  033%=      5-min Rain = 0
KLA1 161919Z 18007KT 17/01 A3003 RMK A01 T01720007  RH  033%=      5-min Rain = 0
KLA1 161920Z 18008KT 17/01 A3003 RMK A01 T01710009  RH  033%=      5-min Rain = 0
KLA1 161921Z 15009KT 17/01 A3003 RMK A01 T01710006  RH  033%=      5-min Rain = 0
KLA1 161922Z 16008KT 17/01 A3003 RMK A01 T01710006  RH  033%=      5-min Rain = 0
KLA1 161923Z 17010KT 17/01 A3003 RMK A01 T01710006  RH  033%=      5-min Rain = 0
KLA1 161924Z 17006KT 17/01 A3003 RMK A01 T01700008  RH  033%=      5-min Rain = 0
KLA1 161925Z 18008KT 17/00 A3003 RMK A01 T01700004  RH  032%=      5-min Rain = 0
KLA1 161926Z 17008KT 17/01 A3003 RMK A01 T01720007  RH  033%=      5-min Rain = 0
KLA1 161927Z 15010KT 17/02 A3003 RMK A01 T01740015  RH  034%=      5-min Rain = 0
KLA1 161928Z 18009KT 18/01 A3003 RMK A01 T01750012  RH  033%=      5-min Rain = 0
KLA1 161929Z 17008KT 17/01 A3003 RMK A01 T01740009  RH  033%=      5-min Rain = 0
KLA1 161930Z 18006KT 17/01 A3002 RMK A01 T01720006  RH  032%=      5-min Rain = 0
KLA1 161931Z 18007KT 17/00 A3002 RMK A01 T01700004  RH  032%=      5-min Rain = 0
KLA1 161932Z 19005KT 17/00 A3002 RMK A01 T01690001  RH  032%=      5-min Rain = 0
KLA1 161933Z 18005KT 17/00 A3002 RMK A01 T01680003  RH  033%=      5-min Rain = 0
KLA1 161934Z 15009KT 17/01 A3002 RMK A01 T01690005  RH  033%=      5-min Rain = 0
KLA1 161935Z 15008KT 17/00 A3002 RMK A01 T01700004  RH  032%=      5-min Rain = 0
KLA1 161936Z 14010KT 17/01 A3002 RMK A01 T01730014  RH  034%=      5-min Rain = 0
KLA1 161937Z 15010KT 18/01 A3002 RMK A01 T01750013  RH  034%=      5-min Rain = 0
KLA1 161938Z 14008KT 17/01 A3002 RMK A01 T01740011  RH  033%=      5-min Rain = 0
KLA1 161939Z 15010KT 17/01 A3002 RMK A01 T01730011  RH  033%=      5-min Rain = 0
KLA1 161940Z 15007KT 17/01 A3002 RMK A01 T01730011  RH  034%=      5-min Rain = 0
KLA1 161941Z 13007KT 17/01 A3002 RMK A01 T01710009  RH  034%=      5-min Rain = 0
KLA1 161942Z 14005KT 17/01 A3002 RMK A01 T01700007  RH  033%=      5-min Rain = 0
KLA1 161943Z 13005KT 17/01 A3001 RMK A01 T01700006  RH  033%=      5-min Rain = 0
KLA1 161944Z 14005KT 17/01 A3001 RMK A01 T01700006  RH  033%=      5-min Rain = 0
KLA1 161945Z 17010G15KT 17/01 A3001 RMK A01 T01700010  RH  034%=      5-min Rain = 0
KLA1 161946Z 16010KT 17/01 A3001 RMK A01 T01710010  RH  034%=      5-min Rain = 0
KLA1 161947Z 17009KT 17/01 A3001 RMK A01 T01710013  RH  034%=      5-min Rain = 0
KLA1 161948Z 19010KT 17/01 A3001 RMK A01 T01700013  RH  035%=      5-min Rain = 0
KLA1 161949Z 19007KT 17/01 A3001 RMK A01 T01690014  RH  035%=      5-min Rain = 0
KLA1 161950Z 19007KT 17/01 A3001 RMK A01 T01690014  RH  035%=      5-min Rain = 0
KLA1 161951Z 16005KT 17/01 A3001 RMK A01 T01680012  RH  035%=      5-min Rain = 0
KLA1 161952Z 15009KT 17/01 A3001 RMK A01 T01680014  RH  035%=      5-min Rain = 0
KLA1 161953Z 14006KT 17/01 A3001 RMK A01 T01680011  RH  035%=      5-min Rain = 0
KLA1 161954Z 11006KT 17/01 A3001 RMK A01 T01670010  RH  035%=      5-min Rain = 0
KLA1 161955Z 18009KT 17/01 A3001 RMK A01 T01670013  RH  035%=      5-min Rain = 0
KLA1 161956Z 17012KT 17/01 A3001 RMK A01 T01690008  RH  034%=      5-min Rain = 0
KLA1 161957Z 16009KT 17/01 A3001 RMK A01 T01690006  RH  033%=      5-min Rain = 0
KLA1 161958Z 14010KT 17/01 A3001 RMK A01 T01690007  RH  033%=      5-min Rain = 0
KLA1 161959Z 16007KT 17/01 A3001 RMK A01 T01700007  RH  033%=      5-min Rain = 0
KLA1 162000Z 17007KT 17/01 A3001 RMK A01 T01720011  RH  034%=      5-min Rain = 0
KLA1 162001Z 19007KT 17/01 A3001 RMK A01 T01740010  RH  033%=      5-min Rain = 0
KLA1 162002Z 19006KT 17/01 A3001 RMK A01 T01740010  RH  033%=      5-min Rain = 0
KLA1 162003Z 18008KT 17/01 A3001 RMK A01 T01730011  RH  033%=      5-min Rain = 0
KLA1 162004Z 18010KT 17/01 A3001 RMK A01 T01730011  RH  033%=      5-min Rain = 0
KLA1 162005Z 19007KT 17/00 A3001 RMK A01 T01720004  RH  032%=      5-min Rain = 0
KLA1 162006Z 20009KT 17/01 A3001 RMK A01 T01710008  RH  033%=      5-min Rain = 0
KLA1 162007Z 20009KT 17/01 A3001 RMK A01 T01700008  RH  033%=      5-min Rain = 0
KLA1 162008Z 19008KT 17/01 A3001 RMK A01 T01680006  RH  033%=      5-min Rain = 0
KLA1 162009Z 19005KT 17/00 A30 RMK A01 T01670004  RH  033%=      5-min Rain = 0
KLA1 162010Z 19006KT 17/01 A30 RMK A01 T01670005  RH  033%=      5-min Rain = 0
KLA1 162011Z 18004KT 17/00 A30 RMK A01 T01670002  RH  032%=      5-min Rain = 0
KLA1 162012Z 18006KT 17/00 A30 RMK A01 T01670004  RH  033%=      5-min Rain = 0
KLA1 162013Z 18008KT 17/01 A30 RMK A01 T01690010  RH  034%=      5-min Rain = 0
KLA1 162014Z 18009KT 17/01 A30 RMK A01 T01700007  RH  033%=      5-min Rain = 0
KLA1 162015Z 18005KT 17/01 A30 RMK A01 T01700006  RH  033%=      5-min Rain = 0
KLA1 162016Z 16006KT 17/01 A30 RMK A01 T01690009  RH  034%=      5-min Rain = 0
KLA1 162017Z 18006KT 17/01 A30 RMK A01 T01690008  RH  034%=      5-min Rain = 0
KLA1 162018Z 19007KT 17/01 A30 RMK A01 T01690009  RH  034%=      5-min Rain = 0
KLA1 162019Z 17006KT 17/01 A30 RMK A01 T01690008  RH  034%=      5-min Rain = 0
KLA1 162020Z 17005KT 17/01 A30 RMK A01 T01680005  RH  033%=      5-min Rain = 0
KLA1 162021Z 18006KT 17/01 A30 RMK A01 T01680006  RH  033%=      5-min Rain = 0
KLA1 162022Z 17009KT 17/01 A30 RMK A01 T01680009  RH  034%=      5-min Rain = 0
KLA1 162023Z 16009KT 17/01 A30 RMK A01 T01680007  RH  034%=      5-min Rain = 0
KLA1 162024Z 15007KT 17/01 A30 RMK A01 T01690006  RH  033%=      5-min Rain = 0
KLA1 162025Z 18005KT 17/01 A30 RMK A01 T01690008  RH  034%=      5-min Rain = 0
KLA1 162026Z 20008KT 17/01 A30 RMK A01 T01690008  RH  034%=      5-min Rain = 0
KLA1 162027Z 20008KT 17/01 A30 RMK A01 T01690010  RH  034%=      5-min Rain = 0
KLA1 162028Z 18007KT 17/01 A30 RMK A01 T01690011  RH  034%=      5-min Rain = 0
KLA1 162029Z 17007KT 17/01 A30 RMK A01 T01690011  RH  034%=      5-min Rain = 0
KLA1 162030Z 18008KT 17/01 A30 RMK A01 T01690010  RH  034%=      5-min Rain = 0
KLA1 162031Z 21010KT 17/01 A2999 RMK A01 T01690010  RH  034%=      5-min Rain = 0
KLA1 162032Z 21008KT 17/01 A2999 RMK A01 T01680012  RH  035%=      5-min Rain = 0
KLA1 162033Z 19007KT 17/01 A2999 RMK A01 T01680014  RH  035%=      5-min Rain = 0
KLA1 162034Z 18008KT 17/02 A2999 RMK A01 T01700015  RH  035%=      5-min Rain = 0
KLA1 162035Z 16007KT 17/02 A2999 RMK A01 T01710015  RH  035%=      5-min Rain = 0
KLA1 162036Z 17006KT 17/01 A2999 RMK A01 T01710013  RH  034%=      5-min Rain = 0
KLA1 162037Z 18006KT 17/01 A2999 RMK A01 T01710013  RH  034%=      5-min Rain = 0
KLA1 162038Z 17008KT 17/01 A2999 RMK A01 T01710012  RH  034%=      5-min Rain = 0
KLA1 162039Z 16010KT 17/01 A2999 RMK A01 T01710011  RH  034%=      5-min Rain = 0
KLA1 162040Z 18008KT 17/01 A2999 RMK A01 T01710006  RH  033%=      5-min Rain = 0
KLA1 162041Z 19009KT 17/01 A2999 RMK A01 T01700012  RH  034%=      5-min Rain = 0
KLA1 162042Z 18006KT 17/01 A2999 RMK A01 T01710011  RH  034%=      5-min Rain = 0
KLA1 162043Z 20006KT 17/01 A2999 RMK A01 T01720011  RH  034%=      5-min Rain = 0
KLA1 162044Z 20008KT 17/02 A2999 RMK A01 T01740016  RH  035%=      5-min Rain = 0
KLA1 162045Z 19009KT 18/01 A2999 RMK A01 T01760014  RH  034%=      5-min Rain = 0
KLA1 162046Z 19010KT 18/01 A2999 RMK A01 T01760010  RH  033%=      5-min Rain = 0
KLA1 162047Z 19009KT 18/01 A2999 RMK A01 T01750011  RH  033%=      5-min Rain = 0
KLA1 162048Z 20008KT 18/02 A2999 RMK A01 T01760017  RH  034%=      5-min Rain = 0
KLA1 162049Z 20008KT 18/02 A2999 RMK A01 T01780016  RH  034%=      5-min Rain = 0
KLA1 162050Z 21008KT 18/01 A2999 RMK A01 T01790012  RH  033%=      5-min Rain = 0
KLA1 162051Z 20007KT 18/01 A2999 RMK A01 T01770011  RH  033%=      5-min Rain = 0
KLA1 162052Z 19006KT 18/01 A2999 RMK A01 T01760011  RH  033%=      5-min Rain = 0
KLA1 162053Z 18005KT 18/01 A2999 RMK A01 T01750005  RH  032%=      5-min Rain = 0
KLA1 162054Z 16005KT 17/01 A2999 RMK A01 T01730008  RH  033%=      5-min Rain = 0
KLA1 162055Z 19006KT 17/01 A2999 RMK A01 T01730012  RH  034%=      5-min Rain = 0
KLA1 162056Z 17007KT 17/01 A2999 RMK A01 T01730011  RH  034%=      5-min Rain = 0
KLA1 162057Z 16007KT 17/01 A2999 RMK A01 T01720014  RH  034%=      5-min Rain = 0
KLA1 162058Z 16009KT 17/01 A2999 RMK A01 T01720009  RH  033%=      5-min Rain = 0
KLA1 162059Z 14009G15KT 17/01 A2999 RMK A01 T01720009  RH  033%=      5-min Rain = 0
KLA1 162100Z 19012G17KT 17/01 A2999 RMK A01 T01730012  RH  034%=      5-min Rain = 0
KLA1 162101Z 21009KT 18/01 A2999 RMK A01 T01750009  RH  033%=      5-min Rain = 0
KLA1 162102Z 19008KT 18/01 A2999 RMK A01 T01760012  RH  033%=      5-min Rain = 0
KLA1 162103Z 19007KT 18/01 A2999 RMK A01 T01780008  RH  032%=      5-min Rain = 0
KLA1 162104Z 17007KT 18/01 A2999 RMK A01 T01770009  RH  032%=      5-min Rain = 0
KLA1 162105Z 15006KT 18/01 A2999 RMK A01 T01780011  RH  033%=      5-min Rain = 0
KLA1 162106Z 16008KT 18/02 A2999 RMK A01 T01800017  RH  033%=      5-min Rain = 0
KLA1 162107Z 17006KT 18/01 A2999 RMK A01 T01820009  RH  031%=      5-min Rain = 0
KLA1 162108Z 16008KT 18/01 A2999 RMK A01 T01790007  RH  031%=      5-min Rain = 0
KLA1 162109Z 16008KT 18/01 A2999 RMK A01 T01790013  RH  033%=      5-min Rain = 0
KLA1 162110Z 18007KT 18/01 A2999 RMK A01 T01800010  RH  032%=      5-min Rain = 0
KLA1 162111Z 16007KT 18/01 A2998 RMK A01 T01790007  RH  031%=      5-min Rain = 0
KLA1 162112Z 15008G13KT 18/01 A2998 RMK A01 T01770009  RH  032%=      5-min Rain = 0
KLA1 162113Z 16011KT 18/01 A2998 RMK A01 T01770013  RH  033%=      5-min Rain = 0
KLA1 162114Z 18009KT 18/01 A2998 RMK A01 T01780011  RH  032%=      5-min Rain = 0
KLA1 162115Z 17009KT 18/01 A2998 RMK A01 T01780012  RH  033%=      5-min Rain = 0
KLA1 162116Z 17009KT 18/01 A2998 RMK A01 T01770012  RH  033%=      5-min Rain = 0
KLA1 162117Z 17010KT 18/01 A2998 RMK A01 T01770012  RH  033%=      5-min Rain = 0
KLA1 162118Z 17008KT 18/01 A2998 RMK A01 T01750007  RH  032%=      5-min Rain = 0
KLA1 162119Z 16006KT 17/01 A2998 RMK A01 T01730007  RH  032%=      5-min Rain = 0
KLA1 162120Z 20002KT 17/00 A2998 RMK A01 T01730003  RH  032%=      5-min Rain = 0
KLA1 162121Z 20005KT 17/01 A2998 RMK A01 T01740008  RH  032%=      5-min Rain = 0
KLA1 162122Z 17009KT 18/01 A2998 RMK A01 T01780014  RH  033%=      5-min Rain = 0
KLA1 162123Z 17008KT 18/01 A2998 RMK A01 T01810012  RH  032%=      5-min Rain = 0
KLA1 162124Z 17008KT 18/01 A2998 RMK A01 T01810007  RH  031%=      5-min Rain = 0
KLA1 162125Z 18006KT 18/01 A2998 RMK A01 T01790008  RH  032%=      5-min Rain = 0
KLA1 162126Z 16005KT 18/01 A2998 RMK A01 T01790008  RH  032%=      5-min Rain = 0
KLA1 162127Z 16004KT 18/01 A2998 RMK A01 T01780005  RH  031%=      5-min Rain = 0
KLA1 162128Z 19004KT 18/00 A2998 RMK A01 T01770003  RH  031%=      5-min Rain = 0
KLA1 162129Z 18006KT 18/01 A2998 RMK A01 T01760005  RH  031%=      5-min Rain = 0
KLA1 162130Z 19005KT 18/01 A2998 RMK A01 T01770007  RH  032%=      5-min Rain = 0
KLA1 162131Z 19009KT 18/01 A2998 RMK A01 T01780009  RH  032%=      5-min Rain = 0
KLA1 162132Z 18012KT 18/01 A2998 RMK A01 T01800008  RH  031%=      5-min Rain = 0
KLA1 162133Z 20009KT 18/00 A2998 RMK A01 T01800004  RH  031%=      5-min Rain = 0
KLA1 162134Z 18008KT 18/01 A2998 RMK A01 T01790007  RH  031%=      5-min Rain = 0
KLA1 162135Z 20009KT 18/01 A2998 RMK A01 T01800007  RH  031%=      5-min Rain = 0
KLA1 162136Z 20010KT 18/01 A2998 RMK A01 T01820010  RH  032%=      5-min Rain = 0
KLA1 162137Z 20008KT 18/01 A2998 RMK A01 T01820010  RH  031%=      5-min Rain = 0
KLA1 162138Z 20009KT 18/01 A2998 RMK A01 T01820008  RH  031%=      5-min Rain = 0
KLA1 162139Z 20010KT 18/01 A2998 RMK A01 T01810005  RH  030%=      5-min Rain = 0
KLA1 162140Z 20009KT 18/00 A2998 RMK A01 T01790004  RH  031%=      5-min Rain = 0
KLA1 162141Z 20008KT 18/00 A2998 RMK A01 T01760002  RH  031%=      5-min Rain = 0
KLA1 162142Z 22007KT 17/00 A2998 RMK A01 T01740003  RH  031%=      5-min Rain = 0
KLA1 162143Z 19007KT 17/00 A2998 RMK A01 T01730004  RH  032%=      5-min Rain = 0
KLA1 162144Z 20008KT 17/01 A2998 RMK A01 T01730008  RH  033%=      5-min Rain = 0
KLA1 162145Z 21007KT 17/01 A2998 RMK A01 T01740005  RH  032%=      5-min Rain = 0
KLA1 162146Z 20007KT 17/00 A2997 RMK A01 T01740003  RH  032%=      5-min Rain = 0
KLA1 162147Z 18005KT 18/01 A2997 RMK A01 T01750007  RH  032%=      5-min Rain = 0
KLA1 162148Z 17005KT 18/01 A2997 RMK A01 T01790010  RH  032%=      5-min Rain = 0
KLA1 162149Z 17004KT 18/00 A2997 RMK A01 T01820002  RH  030%=      5-min Rain = 0
KLA1 162150Z 19006KT 18/00 A2997 RMK A01 T01810002  RH  030%=      5-min Rain = 0
KLA1 162151Z 18006KT 18/00 A2997 RMK A01 T01810002  RH  030%=      5-min Rain = 0
KLA1 162152Z 19004KT 18/M00 A2997 RMK A01 T01791003  RH  029%=      5-min Rain = 0
KLA1 162153Z 20007KT 18/00 A2997 RMK A01 T01780000  RH  030%=      5-min Rain = 0
KLA1 162154Z 20010KT 18/00 A2997 RMK A01 T01800003  RH  030%=      5-min Rain = 0
KLA1 162155Z 20007KT 18/M00 A2997 RMK A01 T01811001  RH  029%=      5-min Rain = 0
KLA1 162156Z 19008KT 18/00 A2997 RMK A01 T01810004  RH  030%=      5-min Rain = 0
KLA1 162157Z 21009KT 18/01 A2997 RMK A01 T01830005  RH  030%=      5-min Rain = 0
KLA1 162158Z 20006KT 18/00 A2997 RMK A01 T01840004  RH  030%=      5-min Rain = 0
KLA1 162159Z 21008KT 18/M00 A2997 RMK A01 T01841001  RH  029%=      5-min Rain = 0
KLA1 162200Z 19006KT 18/M00 A2997 RMK A01 T01821003  RH  029%=      5-min Rain = 0
KLA1 162201Z 20007KT 18/00 A2997 RMK A01 T01820001  RH  029%=      5-min Rain = 0
KLA1 162202Z 22008KT 18/00 A2997 RMK A01 T01840002  RH  029%=      5-min Rain = 0
KLA1 162203Z 20010KT 18/00 A2997 RMK A01 T01840002  RH  029%=      5-min Rain = 0
KLA1 162204Z 17007KT 18/M00 A2997 RMK A01 T01841003  RH  028%=      5-min Rain = 0
KLA1 162205Z 15007G12KT 18/00 A2997 RMK A01 T01830002  RH  030%=      5-min Rain = 0
KLA1 162206Z 15007G12KT 18/01 A2997 RMK A01 T01840006  RH  030%=      5-min Rain = 0
KLA1 162207Z 17009KT 19/01 A2997 RMK A01 T01850005  RH  030%=      5-min Rain = 0
KLA1 162208Z 18008KT 19/00 A2997 RMK A01 T01860002  RH  029%=      5-min Rain = 0
KLA1 162209Z 17009KT 18/00 A2997 RMK A01 T01840001  RH  029%=      5-min Rain = 0
KLA1 162210Z 17009KT 18/00 A2996 RMK A01 T01830001  RH  029%=      5-min Rain = 0
KLA1 162211Z 18008KT 18/00 A2996 RMK A01 T01830001  RH  029%=      5-min Rain = 0
KLA1 162212Z 20007KT 18/00 A2996 RMK A01 T01820000  RH  029%=      5-min Rain = 0
KLA1 162213Z 20005KT 18/00 A2996 RMK A01 T01820001  RH  029%=      5-min Rain = 0
KLA1 162214Z 19004KT 18/M00 A2996 RMK A01 T01821002  RH  029%=      5-min Rain = 0
KLA1 162215Z 14004KT 18/00 A2996 RMK A01 T01810002  RH  030%=      5-min Rain = 0
KLA1 162216Z 14006KT 18/01 A2996 RMK A01 T01820005  RH  030%=      5-min Rain = 0
KLA1 162217Z 15004KT 18/M00 A2996 RMK A01 T01831001  RH  029%=      5-min Rain = 0
KLA1 162218Z 17002KT 18/00 A2996 RMK A01 T01810002  RH  030%=      5-min Rain = 0
KLA1 162219Z 17005KT 18/00 A2996 RMK A01 T01820003  RH  030%=      5-min Rain = 0
KLA1 162220Z 20009KT 18/01 A2996 RMK A01 T01840008  RH  030%=      5-min Rain = 0
KLA1 162221Z 20010KT 19/00 A2996 RMK A01 T01860003  RH  029%=      5-min Rain = 0
KLA1 162222Z 19009KT 19/M00 A2996 RMK A01 T01861002  RH  028%=      5-min Rain = 0
KLA1 162223Z 20008KT 19/00 A2996 RMK A01 T01850003  RH  029%=      5-min Rain = 0
KLA1 162224Z 19008KT 19/01 A2996 RMK A01 T01850005  RH  030%=      5-min Rain = 0
KLA1 162225Z 19007KT 19/00 A2996 RMK A01 T01850004  RH  029%=      5-min Rain = 0
KLA1 162226Z 18006KT 18/01 A2996 RMK A01 T01840005  RH  030%=      5-min Rain = 0
KLA1 162227Z 18006KT 18/00 A2996 RMK A01 T01820004  RH  030%=      5-min Rain = 0
KLA1 162228Z 18004KT 18/00 A2996 RMK A01 T01800000  RH  030%=      5-min Rain = 0
KLA1 162229Z 16006KT 18/00 A2996 RMK A01 T01780003  RH  031%=      5-min Rain = 0
KLA1 162230Z 19007KT 18/00 A2996 RMK A01 T01770002  RH  031%=      5-min Rain = 0
KLA1 162231Z 22005KT 18/00 A2996 RMK A01 T01750003  RH  031%=      5-min Rain = 0
KLA1 162232Z 21004KT 17/00 A2996 RMK A01 T01740004  RH  032%=      5-min Rain = 0
KLA1 162233Z 19004KT 17/01 A2996 RMK A01 T01740009  RH  033%=      5-min Rain = 0
KLA1 162234Z 17006KT 17/01 A2996 RMK A01 T01740010  RH  033%=      5-min Rain = 0
KLA1 162235Z 17008KT 17/01 A2996 RMK A01 T01740012  RH  034%=      5-min Rain = 0
KLA1 162236Z 18008KT 18/01 A2996 RMK A01 T01750012  RH  033%=      5-min Rain = 0
KLA1 162237Z 17008KT 18/01 A2997 RMK A01 T01750011  RH  033%=      5-min Rain = 0
KLA1 162238Z 18007KT 18/01 A2997 RMK A01 T01760011  RH  033%=      5-min Rain = 0
KLA1 162239Z 18006KT 18/01 A2997 RMK A01 T01750011  RH  033%=      5-min Rain = 0
KLA1 162240Z 17005KT 18/01 A2997 RMK A01 T01750012  RH  033%=      5-min Rain = 0
KLA1 162241Z 18006KT 18/01 A2997 RMK A01 T01750012  RH  033%=      5-min Rain = 0
KLA1 162242Z 18007KT 18/02 A2997 RMK A01 T01770016  RH  034%=      5-min Rain = 0
KLA1 162243Z 19009KT 18/01 A2997 RMK A01 T01780014  RH  033%=      5-min Rain = 0
KLA1 162244Z 17007KT 18/02 A2997 RMK A01 T01790016  RH  033%=      5-min Rain = 0
KLA1 162245Z 16009KT 18/02 A2997 RMK A01 T01800016  RH  033%=      5-min Rain = 0
KLA1 162246Z 17008KT 18/01 A2997 RMK A01 T01800010  RH  032%=      5-min Rain = 0
KLA1 162247Z 16008KT 18/01 A2997 RMK A01 T01810013  RH  032%=      5-min Rain = 0
KLA1 162248Z 16009KT 18/01 A2997 RMK A01 T01810014  RH  032%=      5-min Rain = 0
KLA1 162249Z 16008KT 18/01 A2997 RMK A01 T01820012  RH  032%=      5-min Rain = 0
KLA1 162250Z 16007KT 18/01 A2997 RMK A01 T01820012  RH  032%=      5-min Rain = 0
KLA1 162251Z 16009KT 18/01 A2997 RMK A01 T01820014  RH  032%=      5-min Rain = 0
KLA1 162252Z 15009KT 18/01 A2997 RMK A01 T01820011  RH  032%=      5-min Rain = 0
KLA1 162253Z 16008KT 18/01 A2997 RMK A01 T01810010  RH  032%=      5-min Rain = 0
KLA1 162254Z 17010KT 18/01 A2997 RMK A01 T01810013  RH  032%=      5-min Rain = 0
KLA1 162255Z 18009KT 18/01 A2997 RMK A01 T01810009  RH  031%=      5-min Rain = 0
KLA1 162256Z 18006KT 18/01 A2997 RMK A01 T01800009  RH  031%=      5-min Rain = 0
KLA1 162257Z 19005KT 18/01 A2997 RMK A01 T01800008  RH  031%=      5-min Rain = 0
KLA1 162258Z 15008G13KT 18/01 A2997 RMK A01 T01790009  RH  032%=      5-min Rain = 0
KLA1 162259Z 15011KT 18/01 A2997 RMK A01 T01810011  RH  032%=      5-min Rain = 0
KLA1 162300Z 15008KT 18/01 A2997 RMK A01 T01800009  RH  032%=      5-min Rain = 0
KLA1 162301Z 15009KT 18/01 A2997 RMK A01 T01800011  RH  032%=      5-min Rain = 0
KLA1 162302Z 15010KT 18/01 A2997 RMK A01 T01800010  RH  032%=      5-min Rain = 0
KLA1 162303Z 14008KT 18/01 A2997 RMK A01 T01800012  RH  032%=      5-min Rain = 0
KLA1 162304Z 14010KT 18/01 A2997 RMK A01 T01800010  RH  032%=      5-min Rain = 0
KLA1 162305Z 17008KT 18/01 A2997 RMK A01 T01800012  RH  032%=      5-min Rain = 0
KLA1 162306Z 17009KT 18/01 A2997 RMK A01 T01800011  RH  032%=      5-min Rain = 0
KLA1 162307Z 15009KT 18/01 A2997 RMK A01 T01800010  RH  032%=      5-min Rain = 0
KLA1 162308Z 17009KT 18/01 A2997 RMK A01 T01800010  RH  032%=      5-min Rain = 0
KLA1 162309Z 17011KT 18/01 A2997 RMK A01 T01800011  RH  032%=      5-min Rain = 0
KLA1 162310Z 18010KT 18/01 A2997 RMK A01 T01800011  RH  032%=      5-min Rain = 0
KLA1 162311Z 18010KT 18/01 A2997 RMK A01 T01800011  RH  032%=      5-min Rain = 0
KLA1 162312Z 16008KT 18/01 A2997 RMK A01 T01800011  RH  032%=      5-min Rain = 0
KLA1 162313Z 17009KT 18/01 A2997 RMK A01 T01800010  RH  032%=      5-min Rain = 0
KLA1 162314Z 17009KT 18/01 A2997 RMK A01 T01790007  RH  031%=      5-min Rain = 0
KLA1 162315Z 18008KT 18/01 A2997 RMK A01 T01780007  RH  031%=      5-min Rain = 0
KLA1 162316Z 18007KT 18/01 A2997 RMK A01 T01780006  RH  032%=      5-min Rain = 0
KLA1 162317Z 16008KT 18/01 A2997 RMK A01 T01770008  RH  032%=      5-min Rain = 0
KLA1 162318Z 18006KT 18/01 A2996 RMK A01 T01780006  RH  031%=      5-min Rain = 0
KLA1 162319Z 17006KT 18/01 A2996 RMK A01 T01770008  RH  032%=      5-min Rain = 0
KLA1 162320Z 15007KT 18/01 A2996 RMK A01 T01760009  RH  032%=      5-min Rain = 0
KLA1 162321Z 16007KT 18/01 A2996 RMK A01 T01750009  RH  033%=      5-min Rain = 0
KLA1 162322Z 19006KT 18/01 A2996 RMK A01 T01750012  RH  034%=      5-min Rain = 0
KLA1 162323Z 17005KT 17/01 A2996 RMK A01 T01740014  RH  034%=      5-min Rain = 0
KLA1 162324Z 17006KT 17/01 A2996 RMK A01 T01730014  RH  034%=      5-min Rain = 0
KLA1 162325Z 16008KT 17/01 A2996 RMK A01 T01730009  RH  033%=      5-min Rain = 0
KLA1 162326Z 16009KT 17/01 A2996 RMK A01 T01710007  RH  033%=      5-min Rain = 0
KLA1 162327Z 16007KT 17/01 A2996 RMK A01 T01710007  RH  033%=      5-min Rain = 0
KLA1 162328Z 15006KT 17/01 A2996 RMK A01 T01700010  RH  034%=      5-min Rain = 0
KLA1 162329Z 16005KT 17/02 A2996 RMK A01 T01700015  RH  035%=      5-min Rain = 0
KLA1 162330Z 17006KT 17/01 A2997 RMK A01 T01700014  RH  035%=      5-min Rain = 0
KLA1 162331Z 17007KT 17/01 A2997 RMK A01 T01690011  RH  034%=      5-min Rain = 0
KLA1 162332Z 16007KT 17/01 A2996 RMK A01 T01700010  RH  034%=      5-min Rain = 0
KLA1 162333Z 16007KT 17/01 A2996 RMK A01 T01700010  RH  034%=      5-min Rain = 0
KLA1 162334Z 16009KT 17/01 A2996 RMK A01 T01690009  RH  034%=      5-min Rain = 0
KLA1 162335Z 17009KT 17/01 A2996 RMK A01 T01690008  RH  034%=      5-min Rain = 0
KLA1 162336Z 17007KT 17/01 A2996 RMK A01 T01690008  RH  034%=      5-min Rain = 0
KLA1 162337Z 16008KT 17/01 A2996 RMK A01 T01690008  RH  034%=      5-min Rain = 0
KLA1 162338Z 16008KT 17/01 A2996 RMK A01 T01690007  RH  033%=      5-min Rain = 0
KLA1 162339Z 16008KT 17/01 A2996 RMK A01 T01690008  RH  034%=      5-min Rain = 0
KLA1 162340Z 16009KT 17/01 A2996 RMK A01 T01680008  RH  034%=      5-min Rain = 0
KLA1 162341Z 16007KT 17/01 A2996 RMK A01 T01690009  RH  034%=      5-min Rain = 0
KLA1 162342Z 17008KT 17/01 A2996 RMK A01 T01690011  RH  034%=      5-min Rain = 0
KLA1 162343Z 16009KT 17/01 A2996 RMK A01 T01680008  RH  034%=      5-min Rain = 0
KLA1 162344Z 17009KT 17/01 A2996 RMK A01 T01680008  RH  034%=      5-min Rain = 0
KLA1 162345Z 18008KT 17/01 A2996 RMK A01 T01680007  RH  034%=      5-min Rain = 0
KLA1 162346Z 18008KT 17/01 A2996 RMK A01 T01680008  RH  034%=      5-min Rain = 0
KLA1 162347Z 17008KT 17/01 A2996 RMK A01 T01680009  RH  034%=      5-min Rain = 0
KLA1 162348Z 17008KT 17/01 A2996 RMK A01 T01680008  RH  034%=      5-min Rain = 0
KLA1 162349Z 17007KT 17/01 A2996 RMK A01 T01690011  RH  034%=      5-min Rain = 0
KLA1 162350Z 18008KT 17/01 A2996 RMK A01 T01690010  RH  034%=      5-min Rain = 0
KLA1 162351Z 18009KT 17/01 A2996 RMK A01 T01680007  RH  034%=      5-min Rain = 0
KLA1 162352Z 17008KT 17/01 A2996 RMK A01 T01680008  RH  034%=      5-min Rain = 0
KLA1 162353Z 17008KT 17/01 A2996 RMK A01 T01670008  RH  034%=      5-min Rain = 0
KLA1 162354Z 17008KT 17/01 A2996 RMK A01 T01680010  RH  034%=      5-min Rain = 0
KLA1 162355Z 17008KT 17/01 A2996 RMK A01 T01670008  RH  034%=      5-min Rain = 0
KLA1 162356Z 17007KT 17/01 A2997 RMK A01 T01670009  RH  034%=      5-min Rain = 0
KLA1 162357Z 17007KT 17/01 A2997 RMK A01 T01670010  RH  035%=      5-min Rain = 0
KLA1 162358Z 17008KT 17/01 A2997 RMK A01 T01660008  RH  034%=      5-min Rain = 0
KLA1 162359Z 17008KT 17/01 A2997 RMK A01 T01660009  RH  034%=      5-min Rain = 0
KLA1 170000Z 17010KT 17/01 A2996 RMK A01 T01660006  RH  034%=      5-min Rain = 0
KLA1 170001Z 17007KT 17/01 A2996 RMK A01 T01660006  RH  034%=      5-min Rain = 0
KLA1 170002Z 17009KT 17/01 A2996 RMK A01 T01650008  RH  034%=      5-min Rain = 0
KLA1 170003Z 16007KT 17/01 A2996 RMK A01 T01650008  RH  035%=      5-min Rain = 0
KLA1 170004Z 15007KT 17/01 A2996 RMK A01 T01650010  RH  035%=      5-min Rain = 0
KLA1 170005Z 15010KT 16/01 A2996 RMK A01 T01640011  RH  035%=      5-min Rain = 0
KLA1 170006Z 15008KT 16/01 A2996 RMK A01 T01640011  RH  035%=      5-min Rain = 0
KLA1 170007Z 14009KT 16/01 A2996 RMK A01 T01630010  RH  036%=      5-min Rain = 0
KLA1 170008Z 15009KT 16/01 A2996 RMK A01 T01620012  RH  036%=      5-min Rain = 0
KLA1 170009Z 15008KT 16/01 A2996 RMK A01 T01620013  RH  037%=      5-min Rain = 0
KLA1 170010Z 14008KT 16/01 A2996 RMK A01 T01610013  RH  037%=      5-min Rain = 0
KLA1 170011Z 15007KT 16/01 A2996 RMK A01 T01610014  RH  037%=      5-min Rain = 0
KLA1 170012Z 15008KT 16/01 A2996 RMK A01 T01600012  RH  037%=      5-min Rain = 0
KLA1 170013Z 14008KT 16/01 A2996 RMK A01 T01600011  RH  036%=      5-min Rain = 0
KLA1 170014Z 15008KT 16/01 A2997 RMK A01 T01600011  RH  037%=      5-min Rain = 0
KLA1 170015Z 14007KT 16/01 A2997 RMK A01 T01590012  RH  037%=      5-min Rain = 0
KLA1 170016Z 15009KT 16/01 A2997 RMK A01 T01580011  RH  037%=      5-min Rain = 0
KLA1 170017Z 14007KT 16/01 A2997 RMK A01 T01580011  RH  037%=      5-min Rain = 0
KLA1 170018Z 14007KT 16/01 A2997 RMK A01 T01580011  RH  037%=      5-min Rain = 0
KLA1 170019Z 14007KT 16/01 A2997 RMK A01 T01570012  RH  037%=      5-min Rain = 0
KLA1 170020Z 15007KT 16/01 A2997 RMK A01 T01560013  RH  038%=      5-min Rain = 0
KLA1 170021Z 15007KT 16/01 A2996 RMK A01 T01560013  RH  038%=      5-min Rain = 0
KLA1 170022Z 14007KT 16/01 A2996 RMK A01 T01560013  RH  038%=      5-min Rain = 0
KLA1 170023Z 14007KT 16/01 A2996 RMK A01 T01560013  RH  038%=      5-min Rain = 0
KLA1 170024Z 15008KT 16/01 A2996 RMK A01 T01550012  RH  038%=      5-min Rain = 0
KLA1 170025Z 15006KT 16/01 A2996 RMK A01 T01550013  RH  038%=      5-min Rain = 0
KLA1 170026Z 15007KT 16/01 A2996 RMK A01 T01560014  RH  038%=      5-min Rain = 0
KLA1 170027Z 15007KT 16/01 A2996 RMK A01 T01560013  RH  038%=      5-min Rain = 0
KLA1 170028Z 15005KT 16/01 A2996 RMK A01 T01550013  RH  038%=      5-min Rain = 0
KLA1 170029Z 14004KT 16/02 A2996 RMK A01 T01560016  RH  039%=      5-min Rain = 0
KLA1 170030Z 14005KT 16/02 A2996 RMK A01 T01550017  RH  039%=      5-min Rain = 0
KLA1 170031Z 14005KT 16/02 A2996 RMK A01 T01550016  RH  039%=      5-min Rain = 0
KLA1 170032Z 14004KT 16/02 A2996 RMK A01 T01550016  RH  039%=      5-min Rain = 0
KLA1 170033Z 14006KT 16/02 A2996 RMK A01 T01550017  RH  039%=      5-min Rain = 0
KLA1 170034Z 14005KT 15/02 A2996 RMK A01 T01540016  RH  039%=      5-min Rain = 0
KLA1 170035Z 14005KT 15/02 A2996 RMK A01 T01540017  RH  039%=      5-min Rain = 0
KLA1 170036Z 14005KT 15/02 A2996 RMK A01 T01540017  RH  039%=      5-min Rain = 0
KLA1 170037Z 14005KT 15/02 A2996 RMK A01 T01540016  RH  039%=      5-min Rain = 0
KLA1 170038Z 14005KT 15/02 A2996 RMK A01 T01530018  RH  040%=      5-min Rain = 0
KLA1 170039Z 15005KT 15/02 A2996 RMK A01 T01530017  RH  040%=      5-min Rain = 0
KLA1 170040Z 14007KT 15/02 A2996 RMK A01 T01530015  RH  039%=      5-min Rain = 0
KLA1 170041Z 15007KT 15/02 A2996 RMK A01 T01530015  RH  039%=      5-min Rain = 0
KLA1 170042Z 14006KT 15/01 A2996 RMK A01 T01530014  RH  039%=      5-min Rain = 0
KLA1 170043Z 15006KT 15/02 A2996 RMK A01 T01540016  RH  039%=      5-min Rain = 0
KLA1 170044Z 15007KT 15/02 A2996 RMK A01 T01540016  RH  039%=      5-min Rain = 0
KLA1 170045Z 15007KT 15/02 A2996 RMK A01 T01540016  RH  039%=      5-min Rain = 0
KLA1 170046Z 15008KT 15/02 A2996 RMK A01 T01530016  RH  039%=      5-min Rain = 0
KLA1 170047Z 14007KT 15/02 A2996 RMK A01 T01530015  RH  039%=      5-min Rain = 0
KLA1 170048Z 14009KT 15/02 A2997 RMK A01 T01530015  RH  039%=      5-min Rain = 0
KLA1 170049Z 14007KT 15/01 A2997 RMK A01 T01540014  RH  039%=      5-min Rain = 0
KLA1 170050Z 15007KT 15/02 A2997 RMK A01 T01540016  RH  039%=      5-min Rain = 0
KLA1 170051Z 14006KT 15/02 A2997 RMK A01 T01540015  RH  039%=      5-min Rain = 0
KLA1 170052Z 15007KT 15/02 A2997 RMK A01 T01530015  RH  039%=      5-min Rain = 0
KLA1 170053Z 15007KT 15/02 A2997 RMK A01 T01530016  RH  039%=      5-min Rain = 0
KLA1 170054Z 15008KT 15/02 A2996 RMK A01 T01530016  RH  039%=      5-min Rain = 0
KLA1 170055Z 14006G11KT 15/02 A2997 RMK A01 T01520016  RH  040%=      5-min Rain = 0
KLA1 170056Z 14008KT 15/01 A2997 RMK A01 T01520014  RH  039%=      5-min Rain = 0
KLA1 170057Z 14006KT 15/01 A2997 RMK A01 T01520014  RH  039%=      5-min Rain = 0
KLA1 170058Z 14006KT 15/02 A2997 RMK A01 T01520016  RH  040%=      5-min Rain = 0
KLA1 170059Z 14007KT 15/02 A2997 RMK A01 T01510017  RH  040%=      5-min Rain = 0
KLA1 170100Z 14005KT 15/02 A2997 RMK A01 T01500019  RH  041%=      5-min Rain = 0
KLA1 170101Z 14007KT 15/02 A2997 RMK A01 T01490017  RH  041%=      5-min Rain = 0
KLA1 170102Z 14005KT 15/02 A2997 RMK A01 T01490017  RH  041%=      5-min Rain = 0
KLA1 170103Z 14005KT 15/02 A2997 RMK A01 T01490018  RH  041%=      5-min Rain = 0
KLA1 170104Z 14005KT 15/02 A2997 RMK A01 T01480018  RH  041%=      5-min Rain = 0
KLA1 170105Z 14005KT 15/02 A2997 RMK A01 T01480017  RH  041%=      5-min Rain = 0
KLA1 170106Z 13006KT 15/02 A2997 RMK A01 T01480018  RH  041%=      5-min Rain = 0
KLA1 170107Z 13004KT 15/02 A2997 RMK A01 T01480019  RH  042%=      5-min Rain = 0
KLA1 170108Z 14005KT 15/02 A2997 RMK A01 T01470019  RH  042%=      5-min Rain = 0
KLA1 170109Z 14006KT 15/02 A2997 RMK A01 T01470019  RH  042%=      5-min Rain = 0
KLA1 170110Z 14005KT 15/02 A2997 RMK A01 T01460020  RH  043%=      5-min Rain = 0
KLA1 170111Z 14007KT 15/02 A2997 RMK A01 T01450019  RH  042%=      5-min Rain = 0
KLA1 170112Z 14006KT 15/02 A2997 RMK A01 T01450017  RH  042%=      5-min Rain = 0
KLA1 170113Z 14005KT 15/02 A2997 RMK A01 T01460018  RH  042%=      5-min Rain = 0
KLA1 170114Z 14006KT 15/02 A2997 RMK A01 T01460018  RH  042%=      5-min Rain = 0
KLA1 170115Z 14005KT 15/02 A2997 RMK A01 T01460018  RH  042%=      5-min Rain = 0
KLA1 170116Z 14006KT 15/02 A2997 RMK A01 T01450019  RH  042%=      5-min Rain = 0
KLA1 170117Z 14006KT 15/02 A2997 RMK A01 T01460018  RH  042%=      5-min Rain = 0
KLA1 170118Z 15006KT 15/02 A2997 RMK A01 T01460019  RH  042%=      5-min Rain = 0
KLA1 170119Z 15008G13KT 15/02 A2997 RMK A01 T01460017  RH  042%=      5-min Rain = 0
KLA1 170120Z 14006KT 15/02 A2997 RMK A01 T01450017  RH  042%=      5-min Rain = 0
KLA1 170121Z 14005KT 15/02 A2997 RMK A01 T01460019  RH  042%=      5-min Rain = 0
KLA1 170122Z 13006KT 15/02 A2997 RMK A01 T01450020  RH  043%=      5-min Rain = 0
KLA1 170123Z 13006KT 14/02 A2997 RMK A01 T01440021  RH  043%=      5-min Rain = 0
KLA1 170124Z 14006KT 14/02 A2997 RMK A01 T01430022  RH  044%=      5-min Rain = 0
KLA1 170125Z 13005KT 14/02 A2997 RMK A01 T01420021  RH  044%=      5-min Rain = 0
KLA1 170126Z 14006KT 14/02 A2997 RMK A01 T01420021  RH  044%=      5-min Rain = 0
KLA1 170127Z 13006KT 14/02 A2997 RMK A01 T01410022  RH  044%=      5-min Rain = 0
KLA1 170128Z 13006KT 14/02 A2997 RMK A01 T01410022  RH  044%=      5-min Rain = 0
KLA1 170129Z 12005KT 14/02 A2997 RMK A01 T01410022  RH  045%=      5-min Rain = 0
KLA1 170130Z 12005KT 14/02 A2997 RMK A01 T01400023  RH  045%=      5-min Rain = 0
KLA1 170131Z 13005KT 14/02 A2997 RMK A01 T01390023  RH  045%=      5-min Rain = 0
KLA1 170132Z 14007KT 14/02 A2997 RMK A01 T01390023  RH  045%=      5-min Rain = 0
KLA1 170133Z 13006KT 14/02 A2997 RMK A01 T01390023  RH  045%=      5-min Rain = 0
KLA1 170134Z 13006KT 14/02 A2997 RMK A01 T01390023  RH  045%=      5-min Rain = 0
KLA1 170135Z 13007KT 14/02 A2997 RMK A01 T01390023  RH  045%=      5-min Rain = 0
KLA1 170136Z 14007KT 14/02 A2997 RMK A01 T01390024  RH  046%=      5-min Rain = 0
KLA1 170137Z 13007KT 14/03 A2997 RMK A01 T01390025  RH  046%=      5-min Rain = 0
KLA1 170138Z 13008KT 14/02 A2997 RMK A01 T01390024  RH  046%=      5-min Rain = 0
KLA1 170139Z 14008KT 14/02 A2997 RMK A01 T01390023  RH  046%=      5-min Rain = 0
KLA1 170140Z 14009G14KT 14/02 A2997 RMK A01 T01390024  RH  046%=      5-min Rain = 0
KLA1 170141Z 14009KT 14/02 A2997 RMK A01 T01390021  RH  045%=      5-min Rain = 0
KLA1 170142Z 15010KT 14/02 A2997 RMK A01 T01400021  RH  045%=      5-min Rain = 0
KLA1 170143Z 14008KT 14/02 A2997 RMK A01 T01410021  RH  044%=      5-min Rain = 0
KLA1 170144Z 14010KT 14/02 A2997 RMK A01 T01410021  RH  044%=      5-min Rain = 0
KLA1 170145Z 14011KT 14/02 A2997 RMK A01 T01410020  RH  044%=      5-min Rain = 0
KLA1 170146Z 15010KT 14/02 A2997 RMK A01 T01410019  RH  044%=      5-min Rain = 0
KLA1 170147Z 14010KT 14/02 A2997 RMK A01 T01420020  RH  044%=      5-min Rain = 0
KLA1 170148Z 15010KT 14/02 A2997 RMK A01 T01420020  RH  044%=      5-min Rain = 0
KLA1 170149Z 15010KT 14/02 A2997 RMK A01 T01420021  RH  044%=      5-min Rain = 0
KLA1 170150Z 14008KT 14/02 A2997 RMK A01 T01410022  RH  044%=      5-min Rain = 0
KLA1 170151Z 15010KT 14/02 A2997 RMK A01 T01410023  RH  045%=      5-min Rain = 0
KLA1 170152Z 15012G17KT 14/02 A2997 RMK A01 T01400022  RH  045%=      5-min Rain = 0
KLA1 170153Z 15016KT 14/02 A2997 RMK A01 T01400021  RH  045%=      5-min Rain = 0
KLA1 170154Z 14013G19KT 14/02 A2997 RMK A01 T01400022  RH  045%=      5-min Rain = 0
KLA1 170155Z 15017KT 14/02 A2997 RMK A01 T01410024  RH  045%=      5-min Rain = 0
KLA1 170156Z 14013G18KT 14/02 A2997 RMK A01 T01400024  RH  045%=      5-min Rain = 0
KLA1 170157Z 15013KT 14/03 A2997 RMK A01 T01400026  RH  046%=      5-min Rain = 0
KLA1 170158Z 14012KT 14/03 A2997 RMK A01 T01400025  RH  046%=      5-min Rain = 0
KLA1 170159Z 14012KT 14/03 A2997 RMK A01 T01400026  RH  046%=      5-min Rain = 0
KLA1 170200Z 15012KT 14/03 A2997 RMK A01 T01390026  RH  046%=      5-min Rain = 0
KLA1 170201Z 15011KT 14/03 A2997 RMK A01 T01390027  RH  047%=      5-min Rain = 0
KLA1 170202Z 15012KT 14/03 A2997 RMK A01 T01380027  RH  047%=      5-min Rain = 0
KLA1 170203Z 15012KT 14/03 A2997 RMK A01 T01380027  RH  047%=      5-min Rain = 0
KLA1 170204Z 14012KT 14/03 A2997 RMK A01 T01380027  RH  047%=      5-min Rain = 0
KLA1 170205Z 14010KT 14/03 A2997 RMK A01 T01380028  RH  047%=      5-min Rain = 0
KLA1 170206Z 14011KT 14/03 A2997 RMK A01 T01380028  RH  048%=      5-min Rain = 0
KLA1 170207Z 14012KT 14/03 A2997 RMK A01 T01370029  RH  048%=      5-min Rain = 0
KLA1 170208Z 14011KT 14/03 A2997 RMK A01 T01370028  RH  048%=      5-min Rain = 0
KLA1 170209Z 14011KT 14/03 A2997 RMK A01 T01370028  RH  048%=      5-min Rain = 0
KLA1 170210Z 14012KT 14/03 A2997 RMK A01 T01360029  RH  048%=      5-min Rain = 0
KLA1 170211Z 14009KT 14/03 A2997 RMK A01 T01360029  RH  048%=      5-min Rain = 0
KLA1 170212Z 14010G15KT 14/03 A2997 RMK A01 T01360031  RH  049%=      5-min Rain = 0
KLA1 170213Z 13011KT 14/03 A2997 RMK A01 T01350030  RH  049%=      5-min Rain = 0
KLA1 170214Z 13011KT 14/03 A2997 RMK A01 T01350030  RH  049%=      5-min Rain = 0
KLA1 170215Z 14008KT 14/03 A2997 RMK A01 T01350031  RH  049%=      5-min Rain = 0
KLA1 170216Z 15013G18KT 13/03 A2997 RMK A01 T01340031  RH  050%=      5-min Rain = 0
KLA1 170217Z 14009KT 13/03 A2997 RMK A01 T01340031  RH  050%=      5-min Rain = 0
KLA1 170218Z 14014G19KT 13/03 A2997 RMK A01 T01340030  RH  049%=      5-min Rain = 0
KLA1 170219Z 14011KT 13/03 A2997 RMK A01 T01340030  RH  049%=      5-min Rain = 0
KLA1 170220Z 14013KT 13/03 A2997 RMK A01 T01340030  RH  050%=      5-min Rain = 0
KLA1 170221Z 14011KT 13/03 A2997 RMK A01 T01340030  RH  050%=      5-min Rain = 0
KLA1 170222Z 14012KT 13/03 A2997 RMK A01 T01340031  RH  050%=      5-min Rain = 0
KLA1 170223Z 13012KT 13/03 A2997 RMK A01 T01330032  RH  050%=      5-min Rain = 0
KLA1 170224Z 13014KT 13/03 A2997 RMK A01 T01330032  RH  050%=      5-min Rain = 0
KLA1 170225Z 14013KT 13/03 A2997 RMK A01 T01320032  RH  050%=      5-min Rain = 0
KLA1 170226Z 14013KT 13/03 A2997 RMK A01 T01320033  RH  051%=      5-min Rain = 0
KLA1 170227Z 14013G18KT 13/03 A2997 RMK A01 T01320033  RH  051%=      5-min Rain = 0
KLA1 170228Z 14012G18KT 13/03 A2997 RMK A01 T01310034  RH  051%=      5-min Rain = 0
KLA1 170229Z 14012G17KT 13/03 A2997 RMK A01 T01310034  RH  052%=      5-min Rain = 0
KLA1 170230Z 13011KT 13/03 A2997 RMK A01 T01310034  RH  052%=      5-min Rain = 0
KLA1 170231Z 13010KT 13/04 A2997 RMK A01 T01300035  RH  052%=      5-min Rain = 0
KLA1 170232Z 13014G20KT 13/04 A2997 RMK A01 T01300035  RH  053%=      5-min Rain = 0
KLA1 170233Z 14011G17KT 13/04 A2997 RMK A01 T01300035  RH  053%=      5-min Rain = 0
KLA1 170234Z 14010G15KT 13/04 A2997 RMK A01 T01290036  RH  053%=      5-min Rain = 0
KLA1 170235Z 14011G16KT 13/04 A2997 RMK A01 T01280036  RH  053%=      5-min Rain = 0
KLA1 170236Z 14013KT 13/04 A2997 RMK A01 T01280037  RH  054%=      5-min Rain = 0
KLA1 170237Z 14013KT 13/04 A2997 RMK A01 T01280037  RH  054%=      5-min Rain = 0
KLA1 170238Z 14013KT 13/04 A2997 RMK A01 T01280038  RH  054%=      5-min Rain = 0
KLA1 170239Z 14012KT 13/04 A2997 RMK A01 T01270038  RH  054%=      5-min Rain = 0
KLA1 170240Z 14011KT 13/04 A2997 RMK A01 T01270038  RH  055%=      5-min Rain = 0
KLA1 170241Z 14014KT 13/04 A2997 RMK A01 T01270039  RH  055%=      5-min Rain = 0
KLA1 170242Z 14013KT 13/04 A2997 RMK A01 T01270038  RH  055%=      5-min Rain = 0
KLA1 170243Z 14009KT 13/04 A2997 RMK A01 T01270039  RH  055%=      5-min Rain = 0
KLA1 170244Z 14009KT 13/04 A2997 RMK A01 T01260040  RH  056%=      5-min Rain = 0
KLA1 170245Z 14011KT 13/04 A2997 RMK A01 T01260040  RH  056%=      5-min Rain = 0
KLA1 170246Z 14014KT 13/04 A2996 RMK A01 T01250040  RH  056%=      5-min Rain = 0
KLA1 170247Z 14012KT 13/04 A2997 RMK A01 T01260040  RH  056%=      5-min Rain = 0
KLA1 170248Z 14009KT 13/04 A2997 RMK A01 T01250040  RH  056%=      5-min Rain = 0
KLA1 170249Z 14009KT 13/04 A2997 RMK A01 T01250041  RH  056%=      5-min Rain = 0
KLA1 170250Z 14009KT 13/04 A2997 RMK A01 T01250042  RH  057%=      5-min Rain = 0
KLA1 170251Z 14012KT 12/04 A2997 RMK A01 T01240042  RH  057%=      5-min Rain = 0
KLA1 170252Z 14010KT 12/04 A2997 RMK A01 T01240042  RH  057%=      5-min Rain = 0
KLA1 170253Z 14008KT 12/04 A2997 RMK A01 T01240042  RH  057%=      5-min Rain = 0
KLA1 170254Z 14010KT 12/04 A2997 RMK A01 T01240043  RH  058%=      5-min Rain = 0
KLA1 170255Z 14008KT 12/04 A2997 RMK A01 T01240043  RH  058%=      5-min Rain = 0
KLA1 170256Z 13008KT 12/04 A2997 RMK A01 T01230044  RH  058%=      5-min Rain = 0
KLA1 170257Z 14008KT 12/04 A2997 RMK A01 T01230044  RH  058%=      5-min Rain = 0
KLA1 170258Z 14007KT 12/04 A2997 RMK A01 T01230044  RH  059%=      5-min Rain = 0
KLA1 170259Z 14007KT 12/05 A2997 RMK A01 T01230045  RH  059%=      5-min Rain = 0
KLA1 170300Z 14007KT 12/05 A2997 RMK A01 T01220045  RH  059%=      5-min Rain = 0
KLA1 170301Z 14007KT 12/05 A2997 RMK A01 T01220045  RH  059%=      5-min Rain = 0
KLA1 170302Z 14007KT 12/05 A2997 RMK A01 T01220045  RH  059%=      5-min Rain = 0
KLA1 170303Z 14008KT 12/05 A2997 RMK A01 T01220045  RH  059%=      5-min Rain = 0
KLA1 170304Z 14008KT 12/05 A2997 RMK A01 T01220046  RH  060%=      5-min Rain = 0
KLA1 170305Z 14007KT 12/05 A2997 RMK A01 T01220045  RH  060%=      5-min Rain = 0
KLA1 170306Z 14006KT 12/05 A2997 RMK A01 T01220046  RH  060%=      5-min Rain = 0
KLA1 170307Z 13006KT 12/05 A2997 RMK A01 T01210046  RH  060%=      5-min Rain = 0
KLA1 170308Z 14007KT 12/05 A2997 RMK A01 T01210046  RH  060%=      5-min Rain = 0
KLA1 170309Z 15007KT 12/05 A2997 RMK A01 T01210046  RH  060%=      5-min Rain = 0
KLA1 170310Z 15007KT 12/05 A2997 RMK A01 T01210047  RH  060%=      5-min Rain = 0
KLA1 170311Z 15007KT 12/05 A2997 RMK A01 T01200046  RH  060%=      5-min Rain = 0
KLA1 170312Z 14006KT 12/05 A2997 RMK A01 T01210046  RH  060%=      5-min Rain = 0
KLA1 170313Z 15005KT 12/05 A2997 RMK A01 T01200047  RH  061%=      5-min Rain = 0
KLA1 170314Z 15006KT 12/05 A2997 RMK A01 T01200047  RH  061%=      5-min Rain = 0
KLA1 170315Z 15007KT 12/05 A2997 RMK A01 T01200048  RH  061%=      5-min Rain = 0
KLA1 170316Z 15007KT 12/05 A2997 RMK A01 T01190048  RH  062%=      5-min Rain = 0
KLA1 170317Z 15007KT 12/05 A2997 RMK A01 T01190048  RH  062%=      5-min Rain = 0
KLA1 170318Z 15006KT 12/05 A2997 RMK A01 T01190049  RH  062%=      5-min Rain = 0
KLA1 170319Z 15006KT 12/05 A2997 RMK A01 T01190050  RH  062%=      5-min Rain = 0
KLA1 170320Z 16006KT 12/05 A2997 RMK A01 T01190050  RH  063%=      5-min Rain = 0
KLA1 170321Z 15006KT 12/05 A2997 RMK A01 T01190051  RH  063%=      5-min Rain = 0
KLA1 170322Z 16007KT 12/05 A2997 RMK A01 T01190051  RH  063%=      5-min Rain = 0
KLA1 170323Z 15007KT 12/05 A2997 RMK A01 T01190050  RH  063%=      5-min Rain = 0
KLA1 170324Z 15007KT 12/05 A2997 RMK A01 T01190050  RH  063%=      5-min Rain = 0
KLA1 170325Z 16007KT 12/05 A2997 RMK A01 T01190051  RH  063%=      5-min Rain = 0
KLA1 170326Z 14006KT 12/05 A2997 RMK A01 T01190051  RH  063%=      5-min Rain = 0
KLA1 170327Z 14005KT 12/05 A2997 RMK A01 T01190053  RH  064%=      5-min Rain = 0
KLA1 170328Z 15007KT 12/05 A2997 RMK A01 T01190053  RH  064%=      5-min Rain = 0
KLA1 170329Z 15007KT 12/05 A2997 RMK A01 T01180053  RH  064%=      5-min Rain = 0
KLA1 170330Z 15007KT 12/05 A2997 RMK A01 T01180054  RH  065%=      5-min Rain = 0
KLA1 170331Z 15006KT 12/05 A2997 RMK A01 T01180054  RH  065%=      5-min Rain = 0
KLA1 170332Z 15006KT 12/05 A2997 RMK A01 T01180054  RH  065%=      5-min Rain = 0
KLA1 170333Z 14006KT 12/05 A2997 RMK A01 T01180054  RH  065%=      5-min Rain = 0
KLA1 170334Z 14005KT 12/06 A2997 RMK A01 T01180055  RH  065%=      5-min Rain = 0
KLA1 170335Z 14007KT 12/06 A2997 RMK A01 T01180055  RH  065%=      5-min Rain = 0
KLA1 170336Z 14006KT 12/06 A2997 RMK A01 T01180056  RH  066%=      5-min Rain = 0
KLA1 170337Z 14006KT 12/06 A2997 RMK A01 T01180056  RH  066%=      5-min Rain = 0
KLA1 170338Z 14007KT 12/06 A2997 RMK A01 T01180056  RH  066%=      5-min Rain = 0
KLA1 170339Z 14006KT 12/06 A2997 RMK A01 T01180056  RH  066%=      5-min Rain = 0
KLA1 170340Z 13006KT 12/06 A2997 RMK A01 T01180056  RH  066%=      5-min Rain = 0
KLA1 170341Z 14007KT 12/06 A2997 RMK A01 T01170056  RH  066%=      5-min Rain = 0
KLA1 170342Z 13005KT 12/06 A2997 RMK A01 T01170056  RH  066%=      5-min Rain = 0
KLA1 170343Z 13006KT 12/06 A2997 RMK A01 T01170056  RH  066%=      5-min Rain = 0
KLA1 170344Z 13005KT 12/06 A2997 RMK A01 T01170056  RH  066%=      5-min Rain = 0
KLA1 170345Z 12005KT 12/06 A2997 RMK A01 T01170056  RH  066%=      5-min Rain = 0
KLA1 170346Z 11005KT 12/06 A2997 RMK A01 T01160056  RH  066%=      5-min Rain = 0
KLA1 170347Z 12005KT 12/06 A2997 RMK A01 T01160056  RH  067%=      5-min Rain = 0
KLA1 170348Z 12005KT 12/06 A2997 RMK A01 T01150056  RH  067%=      5-min Rain = 0
KLA1 170349Z 12005KT 12/06 A2997 RMK A01 T01150057  RH  067%=      5-min Rain = 0
KLA1 170350Z 13005KT 12/06 A2997 RMK A01 T01150057  RH  067%=      5-min Rain = 0
KLA1 170351Z 12006KT 12/06 A2997 RMK A01 T01150057  RH  068%=      5-min Rain = 0
KLA1 170352Z 13006KT 12/06 A2997 RMK A01 T01150058  RH  068%=      5-min Rain = 0
KLA1 170353Z 13005KT 12/06 A2997 RMK A01 T01150058  RH  068%=      5-min Rain = 0
KLA1 170354Z 13006KT 12/06 A2997 RMK A01 T01150058  RH  068%=      5-min Rain = 0
KLA1 170355Z 14006KT 12/06 A2997 RMK A01 T01150058  RH  068%=      5-min Rain = 0
KLA1 170356Z 13006KT 11/06 A2997 RMK A01 T01140058  RH  069%=      5-min Rain = 0
KLA1 170357Z 14007KT 11/06 A2997 RMK A01 T01140059  RH  069%=      5-min Rain = 0
KLA1 170358Z 14007KT 11/06 A2997 RMK A01 T01140059  RH  069%=      5-min Rain = 0
KLA1 170359Z 14007KT 11/06 A2997 RMK A01 T01140059  RH  069%=      5-min Rain = 0
KLA1 170400Z 14006KT 11/06 A2997 RMK A01 T01140059  RH  069%=      5-min Rain = 0
KLA1 170401Z 13007KT 11/06 A2997 RMK A01 T01130059  RH  069%=      5-min Rain = 0
KLA1 170402Z 15008KT 11/06 A2997 RMK A01 T01130059  RH  069%=      5-min Rain = 0
KLA1 170403Z 14007KT 11/06 A2997 RMK A01 T01130059  RH  069%=      5-min Rain = 0
KLA1 170404Z 14007KT 11/06 A2997 RMK A01 T01130059  RH  069%=      5-min Rain = 0
KLA1 170405Z 15007KT 11/06 A2997 RMK A01 T01130059  RH  069%=      5-min Rain = 0
KLA1 170406Z 14008KT 11/06 A2997 RMK A01 T01140060  RH  069%=      5-min Rain = 0
KLA1 170407Z 14007KT 11/06 A2997 RMK A01 T01130059  RH  069%=      5-min Rain = 0
KLA1 170408Z 14007KT 11/06 A2997 RMK A01 T01130059  RH  069%=      5-min Rain = 0
KLA1 170409Z 14006KT 11/06 A2997 RMK A01 T01130059  RH  069%=      5-min Rain = 0
KLA1 170410Z 14007KT 11/06 A2997 RMK A01 T01130060  RH  070%=      5-min Rain = 0
KLA1 170411Z 14006KT 11/06 A2997 RMK A01 T01130059  RH  070%=      5-min Rain = 0
KLA1 170412Z 14006KT 11/06 A2997 RMK A01 T01130060  RH  070%=      5-min Rain = 0
KLA1 170413Z 13006KT 11/06 A2997 RMK A01 T01130060  RH  070%=      5-min Rain = 0
KLA1 170414Z 13005KT 11/06 A2997 RMK A01 T01130059  RH  070%=      5-min Rain = 0
KLA1 170415Z 14006KT 11/06 A2997 RMK A01 T01130060  RH  070%=      5-min Rain = 0
KLA1 170416Z 14006KT 11/06 A2997 RMK A01 T01130060  RH  070%=      5-min Rain = 0
KLA1 170417Z 14006KT 11/06 A2997 RMK A01 T01120060  RH  070%=      5-min Rain = 0
KLA1 170418Z 13006KT 11/06 A2997 RMK A01 T01130060  RH  070%=      5-min Rain = 0
KLA1 170419Z 13005KT 11/06 A2997 RMK A01 T01120060  RH  070%=      5-min Rain = 0
KLA1 170420Z 13005KT 11/06 A2997 RMK A01 T01120060  RH  071%=      5-min Rain = 0
KLA1 170421Z 13005KT 11/06 A2997 RMK A01 T01120061  RH  071%=      5-min Rain = 0
KLA1 170422Z 14006KT 11/06 A2997 RMK A01 T01110060  RH  071%=      5-min Rain = 0
KLA1 170423Z 13006KT 11/06 A2997 RMK A01 T01110060  RH  071%=      5-min Rain = 0
KLA1 170424Z 13005KT 11/06 A2997 RMK A01 T01110060  RH  071%=      5-min Rain = 0
KLA1 170425Z 13005KT 11/06 A2997 RMK A01 T01120060  RH  071%=      5-min Rain = 0
KLA1 170426Z 13006KT 11/06 A2997 RMK A01 T01110060  RH  071%=      5-min Rain = 0
KLA1 170427Z 13006KT 11/06 A2997 RMK A01 T01120060  RH  071%=      5-min Rain = 0
KLA1 170428Z 13006KT 11/06 A2997 RMK A01 T01110060  RH  070%=      5-min Rain = 0
KLA1 170429Z 13006KT 11/06 A2997 RMK A01 T01120060  RH  070%=      5-min Rain = 0
KLA1 170430Z 13005KT 11/06 A2997 RMK A01 T01120060  RH  070%=      5-min Rain = 0
KLA1 170431Z 13005KT 11/06 A2997 RMK A01 T01120060  RH  070%=      5-min Rain = 0
KLA1 170432Z 13004KT 11/06 A2997 RMK A01 T01120060  RH  070%=      5-min Rain = 0
KLA1 170433Z 13006KT 11/06 A2997 RMK A01 T01120061  RH  071%=      5-min Rain = 0
KLA1 170434Z 13005KT 11/06 A2997 RMK A01 T01120060  RH  071%=      5-min Rain = 0
KLA1 170435Z 13005KT 11/06 A2997 RMK A01 T01120061  RH  071%=      5-min Rain = 0
KLA1 170436Z 14005KT 11/06 A2997 RMK A01 T01110061  RH  071%=      5-min Rain = 0
KLA1 170437Z 13005KT 11/06 A2997 RMK A01 T01110061  RH  071%=      5-min Rain = 0
KLA1 170438Z 13005KT 11/06 A2997 RMK A01 T01120061  RH  071%=      5-min Rain = 0
KLA1 170439Z 14005KT 11/06 A2997 RMK A01 T01110061  RH  071%=      5-min Rain = 0
KLA1 170440Z 13006KT 11/06 A2997 RMK A01 T01110061  RH  071%=      5-min Rain = 0
KLA1 170441Z 13006KT 11/06 A2997 RMK A01 T01110061  RH  072%=      5-min Rain = 0
KLA1 170442Z 13006KT 11/06 A2997 RMK A01 T01110061  RH  071%=      5-min Rain = 0
KLA1 170443Z 13006KT 11/06 A2997 RMK A01 T01110061  RH  071%=      5-min Rain = 0
KLA1 170444Z 13006KT 11/06 A2997 RMK A01 T01100061  RH  071%=      5-min Rain = 0
KLA1 170445Z 13006KT 11/06 A2997 RMK A01 T01110061  RH  071%=      5-min Rain = 0
KLA1 170446Z 13006KT 11/06 A2997 RMK A01 T01110061  RH  071%=      5-min Rain = 0
KLA1 170447Z 13007KT 11/06 A2997 RMK A01 T01110061  RH  071%=      5-min Rain = 0
KLA1 170448Z 13005KT 11/06 A2997 RMK A01 T01110060  RH  071%=      5-min Rain = 0
KLA1 170449Z 12005KT 11/06 A2997 RMK A01 T01110061  RH  071%=      5-min Rain = 0
KLA1 170450Z 12005KT 11/06 A2997 RMK A01 T01110061  RH  071%=      5-min Rain = 0
KLA1 170451Z 13006KT 11/06 A2997 RMK A01 T01110061  RH  071%=      5-min Rain = 0
KLA1 170452Z 12006KT 11/06 A2997 RMK A01 T01110061  RH  071%=      5-min Rain = 0
KLA1 170453Z 13005KT 11/06 A2997 RMK A01 T01110061  RH  071%=      5-min Rain = 0
KLA1 170454Z 13005KT 11/06 A2997 RMK A01 T01110062  RH  071%=      5-min Rain = 0
KLA1 170455Z 13005KT 11/06 A2997 RMK A01 T01110061  RH  071%=      5-min Rain = 0
KLA1 170456Z 13006KT 11/06 A2997 RMK A01 T01110061  RH  072%=      5-min Rain = 0
KLA1 170457Z 12005KT 11/06 A2997 RMK A01 T01110061  RH  071%=      5-min Rain = 0
KLA1 170458Z 14004KT 11/06 A2997 RMK A01 T01110061  RH  071%=      5-min Rain = 0
KLA1 170459Z 12006KT 11/06 A2997 RMK A01 T01110061  RH  072%=      5-min Rain = 0
KLA1 170500Z 13006KT 11/06 A2997 RMK A01 T01110061  RH  071%=      5-min Rain = 0
KLA1 170501Z 13005KT 11/06 A2997 RMK A01 T01110061  RH  071%=      5-min Rain = 0
KLA1 170502Z 14005KT 11/06 A2997 RMK A01 T01100061  RH  072%=      5-min Rain = 0
KLA1 170503Z 13006KT 11/06 A2997 RMK A01 T01110062  RH  072%=      5-min Rain = 0
KLA1 170504Z 13004KT 11/06 A2997 RMK A01 T01100061  RH  072%=      5-min Rain = 0
KLA1 170505Z 13006G11KT 11/06 A2997 RMK A01 T01100062  RH  072%=      5-min Rain = 0
KLA1 170506Z 12005KT 11/06 A2997 RMK A01 T01100061  RH  072%=      5-min Rain = 0
KLA1 170507Z 13004KT 11/06 A2997 RMK A01 T01100061  RH  072%=      5-min Rain = 0
KLA1 170508Z 13004KT 11/06 A2997 RMK A01 T01100061  RH  072%=      5-min Rain = 0
KLA1 170509Z 13005KT 11/06 A2997 RMK A01 T01100061  RH  072%=      5-min Rain = 0
KLA1 170510Z 13006KT 11/06 A2997 RMK A01 T01090061  RH  072%=      5-min Rain = 0
KLA1 170511Z 13006KT 11/06 A2997 RMK A01 T01090061  RH  072%=      5-min Rain = 0
KLA1 170512Z 12005KT 11/06 A2996 RMK A01 T01100060  RH  072%=      5-min Rain = 0
KLA1 170513Z 12007KT 11/06 A2996 RMK A01 T01100060  RH  072%=      5-min Rain = 0
KLA1 170514Z 11006KT 11/06 A2996 RMK A01 T01100060  RH  071%=      5-min Rain = 0
KLA1 170515Z 13005KT 11/06 A2996 RMK A01 T01100060  RH  071%=      5-min Rain = 0
KLA1 170516Z 12006KT 11/06 A2996 RMK A01 T01100060  RH  071%=      5-min Rain = 0
KLA1 170517Z 12005KT 11/06 A2996 RMK A01 T01100060  RH  071%=      5-min Rain = 0
KLA1 170518Z 13005KT 11/06 A2996 RMK A01 T01110061  RH  071%=      5-min Rain = 0
KLA1 170519Z 12004KT 11/06 A2996 RMK A01 T01100061  RH  072%=      5-min Rain = 0
KLA1 170520Z 12005KT 11/06 A2996 RMK A01 T01100061  RH  072%=      5-min Rain = 0
KLA1 170521Z 12006KT 11/06 A2996 RMK A01 T01090061  RH  072%=      5-min Rain = 0
KLA1 170522Z 13006KT 11/06 A2996 RMK A01 T01090061  RH  072%=      5-min Rain = 0
KLA1 170523Z 11004KT 11/06 A2996 RMK A01 T01090060  RH  072%=      5-min Rain = 0
KLA1 170524Z 12006KT 11/06 A2996 RMK A01 T01090060  RH  072%=      5-min Rain = 0
KLA1 170525Z 12005KT 11/06 A2996 RMK A01 T01090060  RH  072%=      5-min Rain = 0
KLA1 170526Z 12006KT 11/06 A2996 RMK A01 T01090060  RH  071%=      5-min Rain = 0
KLA1 170527Z 12006KT 11/06 A2996 RMK A01 T01100060  RH  071%=      5-min Rain = 0
KLA1 170528Z 12003KT 11/06 A2996 RMK A01 T01100060  RH  071%=      5-min Rain = 0
KLA1 170529Z 12004KT 11/06 A2996 RMK A01 T01090060  RH  072%=      5-min Rain = 0
KLA1 170530Z 12005KT 11/06 A2996 RMK A01 T01080060  RH  072%=      5-min Rain = 0
KLA1 170531Z 12004KT 11/06 A2996 RMK A01 T01080060  RH  072%=      5-min Rain = 0
KLA1 170532Z 11004KT 11/06 A2996 RMK A01 T01080060  RH  072%=      5-min Rain = 0
KLA1 170533Z 11006KT 11/06 A2996 RMK A01 T01080059  RH  072%=      5-min Rain = 0
KLA1 170534Z 12006KT 11/06 A2996 RMK A01 T01080058  RH  071%=      5-min Rain = 0
KLA1 170535Z 11005KT 11/06 A2996 RMK A01 T01080058  RH  071%=      5-min Rain = 0
KLA1 170536Z 11005KT 11/06 A2996 RMK A01 T01090057  RH  070%=      5-min Rain = 0
KLA1 170537Z 11005KT 11/06 A2996 RMK A01 T01090057  RH  070%=      5-min Rain = 0
KLA1 170538Z 12005KT 11/06 A2996 RMK A01 T01090058  RH  070%=      5-min Rain = 0
KLA1 170539Z 12005KT 11/06 A2996 RMK A01 T01090058  RH  071%=      5-min Rain = 0
KLA1 170540Z 12007KT 11/06 A2996 RMK A01 T01090057  RH  071%=      5-min Rain = 0
KLA1 170541Z 12006KT 11/06 A2996 RMK A01 T01090057  RH  070%=      5-min Rain = 0
KLA1 170542Z 12007KT 11/06 A2996 RMK A01 T01090056  RH  070%=      5-min Rain = 0
KLA1 170543Z 12006KT 11/06 A2996 RMK A01 T01100056  RH  070%=      5-min Rain = 0
KLA1 170544Z 12006KT 11/06 A2996 RMK A01 T01100057  RH  070%=      5-min Rain = 0
KLA1 170545Z 12005KT 11/06 A2996 RMK A01 T01100057  RH  070%=      5-min Rain = 0
KLA1 170546Z 12007KT 11/06 A2996 RMK A01 T01090056  RH  070%=      5-min Rain = 0
KLA1 170547Z 12005KT 11/06 A2996 RMK A01 T01090056  RH  070%=      5-min Rain = 0
KLA1 170548Z 11007KT 11/06 A2996 RMK A01 T01090057  RH  070%=      5-min Rain = 0
KLA1 170549Z 12006KT 11/06 A2996 RMK A01 T01090057  RH  070%=      5-min Rain = 0
KLA1 170550Z 12006KT 11/06 A2996 RMK A01 T01090057  RH  070%=      5-min Rain = 0
KLA1 170551Z 12005KT 11/06 A2996 RMK A01 T01090056  RH  070%=      5-min Rain = 0
KLA1 170552Z 12006KT 11/06 A2996 RMK A01 T01090057  RH  070%=      5-min Rain = 0
KLA1 170553Z 11005KT 11/06 A2995 RMK A01 T01090057  RH  070%=      5-min Rain = 0
KLA1 170554Z 11006KT 11/06 A2995 RMK A01 T01090057  RH  070%=      5-min Rain = 0
KLA1 170555Z 11006KT 11/06 A2995 RMK A01 T01090057  RH  070%=      5-min Rain = 0
KLA1 170556Z 11005KT 11/06 A2995 RMK A01 T01090056  RH  070%=      5-min Rain = 0
KLA1 170557Z 12006KT 11/06 A2995 RMK A01 T01090056  RH  070%=      5-min Rain = 0
KLA1 170558Z 11007KT 11/06 A2995 RMK A01 T01090056  RH  070%=      5-min Rain = 0
KLA1 170559Z 12005KT 11/06 A2995 RMK A01 T01090056  RH  069%=      5-min Rain = 0

Page generated in 0.071 seconds.